Dados Meteorológicos "Online"
 
  Base de Dados  
 
Dinamização da Estação Meteorológica (na escola)
 
Dados relativos aos últimos 2 meses:
Data/HoraTemperaturaHumi. Rela.PressãoPrecipitaçãoVel.VentoDir.VentoVel.RajadaDir.RajadaRadiação SolarÍndice U.V.
(ºC)(%)(hPa)(mm)(km/h)(km/h)(W / m2)(0-11)
2017-07-28 05:00:0018,770,21011,002,8NE11,0E-10
2017-07-28 04:00:0020,066,01011,002,2NE6,9E-10
2017-07-28 03:00:0020,962,71011,003,9NE10,1E-10
2017-07-28 02:00:0020,459,41010,702,8E8,0E-10
2017-07-28 01:00:0021,160,91010,404,3N17,2NW00
2017-07-28 00:00:0022,159,21009,905,0NW13,9NW-10
2017-07-27 23:00:0022,957,21009,607,1NW15,1NW-10
2017-07-27 22:00:0024,152,11009,309,0NW18,1NW00
2017-07-27 21:00:0025,945,91008,6011,4NW26,2NW70,0
2017-07-27 20:00:0028,736,31007,9014,9NW28,5NW250,1
2017-07-27 19:00:0032,627,71008,1014,9NW31,1NW2440,8
2017-07-27 18:00:0036,920,71008,7013,8NW28,3W5812,3
2017-07-27 17:00:0037,222,11009,1013,2W26,6NW7263,9
2017-07-27 16:00:0037,422,61009,5013,5NW26,0W8305,6
2017-07-27 15:00:0037,323,01009,8012,4W26,3W8816,7
2017-07-27 14:00:0037,224,11010,109,4W20,5W8857,0
2017-07-27 13:00:0035,123,21010,7010,7SW19,2SW8506,4
2017-07-27 12:00:0034,620,81011,006,0S13,9SW7525,0
2017-07-27 11:00:0032,623,21011,303,9S9,7S6123,3
2017-07-27 10:00:0029,229,71011,304,4S13,1SW4421,7
2017-07-27 09:00:0024,644,31011,003,5S7,0SW2560,5
2017-07-27 08:00:0019,761,61010,603,3SW5,4S1010,0
2017-07-27 07:00:0018,864,21010,303,2SE6,3E50
2017-07-27 06:00:0019,165,01010,102,7E6,2E-10
2017-07-27 05:00:0019,668,91009,701,9NW6,3NW-10
2017-07-27 04:00:0020,175,21009,702,9N8,9NE-10
2017-07-27 03:00:0020,384,91009,702,1NW5,3NW-10
2017-07-27 02:00:0021,187,41009,702,0NW4,6NW00
2017-07-27 01:00:0021,686,41009,801,0N3,5NE00
2017-07-27 00:00:0022,185,21009,700,9N3,0NW-10
2017-07-26 23:00:0022,484,91009,601,6N3,5N00
2017-07-26 22:00:0022,784,21009,100,8W3,1W00
2017-07-26 21:00:0023,580,31008,702,6SW8,5SW100
2017-07-26 20:00:0024,477,01008,305,6S10,4S410,1
2017-07-26 19:00:0026,568,31008,308,5S19,9S2290,7
2017-07-26 18:00:0028,760,71008,708,1S16,1SE5191,9
2017-07-26 17:00:0028,463,11009,209,6S18,8S6683,5
2017-07-26 16:00:0028,861,81009,5011,4S20,4S7835,1
2017-07-26 15:00:0028,461,41009,7013,5S26,6S8456,1
2017-07-26 14:00:0029,251,31009,8013,5S24,1S8556,2
2017-07-26 13:00:0030,443,71010,0012,4SW25,1SW8225,6
2017-07-26 12:00:0030,242,01010,009,9SW20,7S7174,1
2017-07-26 11:00:0030,638,51010,007,8S14,3SW5812,6
2017-07-26 10:00:0027,643,51010,006,1E11,5SE4121,3
2017-07-26 09:00:0023,652,91010,003,9E10,4E2380,4
2017-07-26 08:00:0019,663,61009,502,1N7,9N910,0
2017-07-26 07:00:0018,965,11008,802,1W8,9NW50
2017-07-26 06:00:0019,561,31008,302,6W9,8W00
2017-07-26 05:00:0020,555,71008,103,3W9,4W00
2017-07-26 04:00:0021,351,71008,003,1W8,2W00
2017-07-26 03:00:0022,348,91008,102,7NW6,0NW-10
2017-07-26 02:00:0024,342,41008,503,3NE8,2NE-10
2017-07-26 01:00:0024,842,51008,504,2NE10,0NE-10
2017-07-26 00:00:0025,642,31008,003,5NW6,7NW-10
2017-07-25 23:00:0026,241,21007,405,0NW9,1NW-10
2017-07-25 22:00:0027,739,51006,805,3NW14,2NW00
2017-07-25 21:00:0030,136,81006,309,3NW18,9N100
2017-07-25 20:00:0031,336,31006,0014,2NW27,2N520,1
2017-07-25 19:00:0033,931,71006,2014,0NW28,4NW2140,5
2017-07-25 18:00:0037,625,91006,7012,6NW30,7NW5071,7
2017-07-25 17:00:0038,723,71007,2012,6NW30,1W6673,3
2017-07-25 16:00:0038,525,91007,9011,2W25,1W7804,8
2017-07-25 15:00:0037,229,01008,6011,4W23,5S8486,0
2017-07-25 14:00:0036,529,61009,306,8W20,5NW8556,2
2017-07-25 13:00:0034,329,51009,806,9SE15,4SE8115,4
2017-07-25 12:00:0032,732,51010,206,0NE17,5SE7104,0
2017-07-25 11:00:0029,840,31010,607,1NE16,2N5632,3
2017-07-25 10:00:0026,251,21010,804,2NW12,1N4021,1
2017-07-25 09:00:0022,362,81011,104,5N11,5N2270,3
2017-07-25 08:00:0018,773,81011,202,7NW7,1N740,0
2017-07-25 07:00:0017,874,81010,902,7N7,6N40
2017-07-25 06:00:0018,072,61010,702,6W5,3W-10
2017-07-25 05:00:0018,270,11010,602,8SW7,4W-10
2017-07-25 04:00:0018,668,81010,702,3SW7,7W-10
2017-07-25 03:00:0019,366,71011,104,1W11,1W00
2017-07-25 02:00:0020,165,71011,503,3NW7,7NW-10
2017-07-25 01:00:0021,162,61011,905,4NW11,6NW00
2017-07-25 00:00:0022,058,51011,905,0NW12,9NW-10
2017-07-24 23:00:0023,155,11011,706,2NW13,9W00
2017-07-24 22:00:0024,353,21011,209,4NW24,4NW00
2017-07-24 21:00:0026,249,41010,9011,1NW25,5NW70,0
2017-07-24 20:00:0028,344,61010,6014,7NW31,4N380,1
2017-07-24 19:00:0031,039,41010,6019,9NW38,0N2440,8
2017-07-24 18:00:0034,535,11011,0018,3NW34,8N5602,2
2017-07-24 17:00:0035,533,91011,5018,1NW34,8NW7063,9
2017-07-24 16:00:0036,433,21012,2015,6NW36,0N8045,3
2017-07-24 15:00:0036,333,51013,0010,1NW25,8NW8526,2
2017-07-24 14:00:0034,933,91013,807,3S21,6S8676,7
2017-07-24 13:00:0033,235,01014,406,7S17,6NE8326,0
2017-07-24 12:00:0030,839,01015,009,6NE24,2NE7224,3
2017-07-24 11:00:0029,044,31015,308,6NE19,2N5912,9
2017-07-24 10:00:0025,554,61015,409,6NE25,2NE4211,4
2017-07-24 09:00:0022,762,91015,3010,8NE23,3N2240,3
2017-07-24 08:00:0021,664,61015,109,5NE25,8NE1020,0
2017-07-24 07:00:0021,066,31014,908,3NE23,8NE60
2017-07-24 06:00:0021,065,41014,704,7NE13,0E-10
2017-07-24 05:00:0021,364,21014,706,8NE19,3NE-10
2017-07-24 04:00:0021,762,61014,703,6NE10,1NE-10
2017-07-24 03:00:0023,056,81015,005,2E20,6N-10
2017-07-24 02:00:0023,754,11015,209,7NE22,5N-10
2017-07-24 01:00:0023,855,31015,106,0N16,2N-10
2017-07-24 00:00:0024,154,61014,707,8N16,3N-10
2017-07-23 23:00:0024,055,41013,907,7NW19,0NW00
2017-07-23 20:00:0028,341,51011,9014,6NW29,0N420,1
2017-07-23 19:00:0031,435,91011,7016,8NW33,1NW2570,8
2017-07-23 18:00:0034,332,31012,0018,1NW34,7NW5612,1
2017-07-23 17:00:0035,430,61012,3013,1W26,5NW7053,7
2017-07-23 16:00:0034,532,51013,0013,1W29,2NW8155,3
2017-07-23 15:00:0034,832,41013,709,7W25,5NW8776,4
2017-07-23 14:00:0032,536,21014,509,7SW19,5SW8866,7
2017-07-23 13:00:0030,038,5101509,8SW16,7W8486,0
2017-07-23 12:00:0028,240,11015,105,4N17,0S7514,7
2017-07-23 11:00:0025,646,61015,204,1NW13,8W6133,0
2017-07-23 10:00:0023,354,51015,405,5SW10,3SW4431,6
2017-07-23 09:00:0020,663,31015,403,4SE8,5SW2710,5
2017-07-23 08:00:0016,878,21015,002,5S8,4SE1180,0
2017-07-23 07:00:0015,780,81014,201,8W6,6S100
2017-07-23 06:00:0016,777,21013,803,1NW9,8NE00
2017-07-23 05:00:0016,580,01013,503,3E7,7E-10
2017-07-23 04:00:0017,078,51013,101,9NW7,4NW-10
2017-07-23 03:00:0017,477,81013,201,7N6,4N00
2017-07-23 02:00:0018,176,01013,002,6NW6,8NW-10
2017-07-23 01:00:0019,171,51012,804,3NW9,0NW00
2017-07-23 00:00:0019,869,21012,605,4NW13,4N-10
2017-07-22 23:00:0020,666,71011,906,6NW19,7N00
2017-07-22 22:00:0021,464,41011,109,7NW23,2N00
2017-07-22 21:00:0022,760,31010,4017,5NW40,5NW100,0
2017-07-22 20:00:0024,057,61009,9021,8NW45,4NW420,1
2017-07-22 19:00:0026,351,91009,8021,6NW43,7NW2820,8
2017-07-22 18:00:0028,944,41009,9022,4NW43,5N5532,1
2017-07-22 17:00:0030,439,91010,0019,4NW40,1NW7063,7
2017-07-22 16:00:0031,039,01010,3018,3NW38,9NW8155,3
2017-07-22 15:00:0031,935,41010,7014,9NW35,4NW8706,4
2017-07-22 14:00:0031,335,01011,409,0SW26,1N8816,6
2017-07-22 13:00:0029,137,01012,008,4S16,8SW8496,0
2017-07-22 12:00:0027,440,11012,606,2S14,4SE7534,7
2017-07-22 11:00:0025,843,71012,907,2S13,4S6183,1
2017-07-22 10:00:0023,649,01013,106,2S14,4SW4501,6
2017-07-22 09:00:0020,457,91013,003,5SW8,4S2760,5
2017-07-22 08:00:0015,976,01012,602,6W7,5W1220,0
2017-07-22 07:00:0014,977,01012,102,2W6,7NW110
2017-07-22 06:00:0015,373,01011,802,7SW9,7SW00
2017-07-22 05:00:0015,173,71011,503,0W6,3W-10
2017-07-22 04:00:0015,573,41011,501,8W6,0W00
2017-07-22 03:00:0016,472,51011,502,6W5,5W-10
2017-07-22 02:00:0016,974,91011,303,2NW12,9W00
2017-07-22 01:00:0017,972,31011,205,5NW11,6N00
2017-07-22 00:00:0018,571,91011,006,9NW18,0N00
2017-07-21 23:00:0018,972,21010,809,5NW21,4NW00
2017-07-21 22:00:0019,372,71010,0014,4NW27,3NW00
2017-07-21 21:00:0020,666,71009,5018,2NW38,3NW100,0
2017-07-21 20:00:0022,358,51009,3017,6NW34,1NW400,1
2017-07-21 19:00:0024,250,51009,2020,2NW42,8NW3150,8
2017-07-21 18:00:0026,543,51009,4022,3NW44,5NW5702,2
2017-07-21 17:00:0027,741,01009,7018,3NW37,5NW7173,8
2017-07-21 16:00:0027,741,81009,9018,3NW35,4NW8245,4
2017-07-21 15:00:0027,342,21010,2018,9NW41,7NW8786,5
2017-07-21 14:00:0026,941,91010,8017,2NW36,6NW8826,6
2017-07-21 13:00:0026,343,11011,3015,7NW34,1NW8466,0
2017-07-21 12:00:0025,245,11011,7013,0NW27,8NW7494,6
2017-07-21 11:00:0024,246,01012,207,3NW16,8NW6123,1
2017-07-21 10:00:0021,853,41012,307,6NW18,5NW4461,6
2017-07-21 09:00:0019,361,31012,505,5W14,9W2730,5
2017-07-21 08:00:0015,973,31012,303,7NW13,5N1170,0
2017-07-21 07:00:0015,176,21011,703,4NW10,2NW100
2017-07-21 06:00:0015,673,51011,307,0NW14,9N00
2017-07-21 05:00:0015,772,51011,108,1N18,2N00
2017-07-21 04:00:0015,675,11010,905,1NW11,5NW00
2017-07-21 03:00:0016,272,91011,007,2NW16,5N00
2017-07-21 02:00:0016,672,61011,108,0NW18,9NW00
2017-07-21 01:00:0017,072,51011,109,1NW19,1NW-10
2017-07-21 00:00:0017,569,71011,0011,6NW25,5NW00
2017-07-20 23:00:0017,868,31010,8013,7NW29,2N00
2017-07-20 22:00:0018,465,91010,2018,3NW42,6NW00
2017-07-20 21:00:0019,961,11009,7018,1NW39,2N110,0
2017-07-20 20:00:0021,155,61009,4019,1NW41,1NW470,1
2017-07-20 19:00:0023,946,51009,3022,3NW43,9NW3150,8
2017-07-20 18:00:0026,741,31009,5019,7NW40,2NW5662,3
2017-07-20 17:00:0027,342,21009,7020,4NW46,4N7124,0
2017-07-20 16:00:0027,841,81009,9019,4NW40,0NW8245,6
2017-07-20 15:00:0027,643,21010,3018,3NW38,9N8786,7
2017-07-20 14:00:0027,443,51011,0018,6NW37,3NW8827,0
2017-07-20 13:00:0026,844,71011,6013,0NW28,1N8416,3
2017-07-20 12:00:0025,648,11012,2013,1NW29,5N7474,9
2017-07-20 11:00:0024,450,81012,6012,2NW31,4NW5763,1
2017-07-20 10:00:0022,657,11013,1010,1NW20,6NW3881,5
2017-07-20 09:00:0020,765,71013,308,8NW30,8N2780,6
2017-07-20 08:00:0017,677,11013,104,6NW15,2NW1180,0
2017-07-20 07:00:0016,577,71012,805,0NW11,9NW110
2017-07-20 06:00:0017,273,01012,505,5NW17,6N00
2017-07-20 05:00:0017,872,11012,206,7NW14,2N-10
2017-07-20 04:00:0018,273,81012,107,8NW20,9N-10
2017-07-20 03:00:0018,973,01012,207,9N19,1NW00
2017-07-20 02:00:0018,978,11012,207,4NW17,9NW00
2017-07-20 01:00:0019,477,21012,2010,3NW21,4N00
2017-07-20 00:00:0019,875,51012,2011,4NW24,2NW-10
2017-07-19 23:00:0020,373,81012,0012,4NW25,9NW00
2017-07-19 22:00:0021,071,21011,3012,9NW26,5NW00
2017-07-19 21:00:0022,463,41010,6016,1NW33,7N90,0
2017-07-19 20:00:0024,254,91010,0017,6NW35,2NW340,1
2017-07-19 19:00:0026,848,01009,9018,9NW36,4N3470,9
2017-07-19 18:00:0029,146,11010,1016,6NW35,8NW5672,3
2017-07-19 17:00:0029,846,11010,5016,9NW33,4NW7064,1
2017-07-19 16:00:0030,844,61010,7017,4NW38,5NW8145,8
2017-07-19 15:00:0031,144,81010,9015,6NW34,1W8657,0
2017-07-19 14:00:0030,546,31011,1013,6NW31,5NW8677,2
2017-07-19 13:00:0028,651,51011,9011,7S25,8S8316,5
2017-07-19 12:00:0027,352,41012,309,7S16,5SW7395,0
2017-07-19 11:00:0025,655,61012,505,8S17,7SW6023,2
2017-07-19 10:00:0023,362,51012,704,1SE9,1E4391,7
2017-07-19 09:00:0021,369,31012,703,4E8,3SE2680,6
2017-07-19 08:00:0018,381,51012,603,4SE8,4SE1160,1
2017-07-19 07:00:0016,885,41011,901,1N4,8NW120
2017-07-19 06:00:0017,184,61011,202,6NW5,1NW00
2017-07-19 05:00:0017,484,01010,603,7NW8,3NW00
2017-07-19 04:00:0018,181,91010,303,7NW12,0NW00
2017-07-19 03:00:0018,582,31010,204,1NW13,6W-10
2017-07-19 02:00:0018,981,91010,005,0NW12,0NW00
2017-07-19 01:00:0019,580,61009,906,7NW18,2NW00
2017-07-19 00:00:0020,078,71009,609,1NW22,2N-10
2017-07-18 23:00:0020,576,91009,2013,9NW28,9NW00
2017-07-18 22:00:0021,571,91008,4013,6NW28,4NW00
2017-07-18 21:00:0023,465,31007,6014,5NW30,6N280,0
2017-07-18 20:00:0025,358,11006,9013,1NW28,8NW990,1
2017-07-18 19:00:0026,952,61006,6017,0NW39,2NW2800,8
2017-07-18 18:00:0030,044,41007,2016,2NW31,7NW5212,2
2017-07-18 17:00:0032,835,11007,4015,7NW33,0W7243,9
2017-07-18 16:00:0032,736,71007,6013,4NW31,3NW7224,8
2017-07-18 15:00:0033,737,11008,1011,8W25,8W8376,0
2017-07-18 14:00:0033,538,81008,509,2W20,9W8446,2
2017-07-18 13:00:0032,142,21009,107,6SW17,9NW7975,3
2017-07-18 12:00:0030,246,01009,404,5E9,8SE6583,9
2017-07-18 11:00:0028,250,21009,305,5E11,7E5652,7
2017-07-18 10:00:0025,257,01009,505,8NE11,3N4011,3
2017-07-18 09:00:0021,967,01009,306,8N14,1N2240,4
2017-07-18 08:00:0019,078,11009,106,4N12,7NW790,0
2017-07-18 07:00:0018,281,51009,105,8N9,9N60
2017-07-18 06:00:0018,780,11009,106,4N11,0N-10
2017-07-18 05:00:0018,979,51009,105,2N12,0N00
2017-07-18 04:00:0019,377,71009,203,6N8,3NW00
2017-07-18 03:00:0020,073,81008,905,4N11,3N-10
2017-07-18 02:00:0020,870,61009,104,1NE10,9NE00
2017-07-18 01:00:0021,365,61008,804,2NW10,1NW-10
2017-07-18 00:00:0022,361,11008,805,0NW11,8NW-10
2017-07-17 23:00:0023,158,91008,406,5NW15,9NW00
2017-07-17 22:00:0024,954,61007,604,9NW14,2NW00
2017-07-17 21:00:0027,847,11007,306,8W15,1W200,0
2017-07-17 20:00:0030,143,81007,308,1W18,5W870,1
2017-07-17 19:00:0031,941,91007,507,7SW21,5NW2840,7
2017-07-17 18:00:0033,435,61008,0010,7SW22,3SW4851,8
2017-07-17 17:00:0034,234,11008,609,7S20,3S6293,2
2017-07-17 16:00:0033,136,51009,108,2S17,3S7424,6
2017-07-17 15:00:0032,837,41009,707,1S15,0S7785,4
2017-07-17 14:00:0031,640,41010,208,1S16,6S8095,9
2017-07-17 13:00:0030,641,41010,6011,7S21,9S7795,3
2017-07-17 12:00:0030,040,31010,8013,2SE23,1S6483,9
2017-07-17 11:00:0030,240,31010,9011,2SE25,3SE5422,6
2017-07-17 10:00:0026,650,31010,906,2E14,4SE3581,2
2017-07-17 09:00:0022,561,51010,903,9E9,6NE1890,4
2017-07-17 08:00:0020,066,51011,103,2NE10,6NE710,0
2017-07-17 07:00:0018,764,11010,902,6N7,0NE60
2017-07-17 06:00:0018,763,41010,402,5NW5,2N-10
2017-07-17 05:00:0018,964,31010,202,0NW7,1NE-10
2017-07-17 04:00:0018,865,31009,803,0N10,2NW-10
2017-07-17 03:00:0019,462,61009,902,3NW5,8NW-10
2017-07-17 02:00:0019,663,21009,902,3NW5,8NW-10
2017-07-17 01:00:0020,660,21010,102,3NW10,0W00
2017-07-15 20:00:0027,353,31009,405,0SW11,9S450,1
2017-07-15 19:00:0029,547,41009,507,7S17,0S3920,9
2017-07-15 18:00:0031,347,01010,0011,6S19,4S5792,4
2017-07-15 17:00:0031,451,71010,5011,4S21,0S7204,0
2017-07-15 16:00:0031,252,51011,0010,7S21,9S8245,6
2017-07-15 15:00:0032,245,81011,5012,3S20,6S8806,7
2017-07-15 14:00:0031,942,01011,9011,0S18,3SW8897,0
2017-07-15 13:00:0031,740,21012,209,6S16,4S8516,4
2017-07-15 12:00:0031,238,31011,9010,2S18,8S7595,0
2017-07-15 11:00:0030,633,51011,805,4SE18,6SW6243,3
2017-07-15 10:00:0026,740,11012,104,5NE10,7NE4491,7
2017-07-15 09:00:0023,451,91012,102,4NE7,0E2660,6
2017-07-15 08:00:0019,464,21011,601,8NW4,5W1020,0
2017-07-15 07:00:0018,164,61010,802,0W6,9W100
2017-07-15 06:00:0018,665,81010,102,1W5,2W-10
2017-07-15 05:00:0019,264,31009,701,1W5,4W00
2017-07-15 04:00:0019,859,21009,701,9NW8,1NW00
2017-07-15 03:00:0020,955,21009,702,3W4,8NW00
2017-07-15 02:00:0021,851,31009,701,4NW2,9NW00
2017-07-15 01:00:0022,649,21009,700,6W2,5NW00
2017-07-15 00:00:0023,746,71009,502,0NW10,8NW-10
2017-07-14 23:00:0025,540,51009,103,2W11,8NW-10
2017-07-14 22:00:0027,930,91008,505,8NW12,9NW00
2017-07-14 21:00:0031,126,21008,007,4NW15,4NW210,0
2017-07-14 20:00:0033,924,81007,7010,4NW23,2NW840,1
2017-07-14 19:00:0037,224,51007,9011,0W25,1NW3390,8
2017-07-14 18:00:0036,931,81008,409,3SW19,1SW5272,2
2017-07-14 17:00:0038,131,81009,0011,6SW19,3SW6813,9
2017-07-14 16:00:0038,231,61009,4010,9SW19,4SW7915,5
2017-07-14 15:00:0039,926,21009,8011,2SW22,2W8446,6
2017-07-14 14:00:0042,119,51009,9010,1SW23,0W8536,9
2017-07-14 13:00:0040,319,81010,105,3W12,7W8186,3
2017-07-14 12:00:0038,419,01010,403,8S10,0SW7244,8
2017-07-14 11:00:0036,517,51010,505,7E15,2NE5923,2
2017-07-14 10:00:0032,024,61010,506,7NE13,1NE4271,7
2017-07-14 09:00:0026,939,91010,405,7N11,6N2560,6
2017-07-14 08:00:0022,062,41010,105,9N9,6N1020,0
2017-07-14 07:00:0020,768,21010,005,4N10,5N100
2017-07-14 06:00:0020,571,61009,802,3NE6,6E00
2017-07-14 05:00:0021,072,51009,301,8W4,4NW00
2017-07-14 04:00:0021,472,11009,102,6NW12,1N00
2017-07-14 03:00:0022,277,61009,202,3NW4,7NW-10
2017-07-14 02:00:0023,277,61009,401,3NW10,7W-10
2017-07-14 01:00:0023,876,41009,501,2NW4,1NW-10
2017-07-14 00:00:0024,276,31009,601,9N4,9NW-10
2017-07-13 23:00:0024,576,91009,301,4NW4,8NW-10
2017-07-13 22:00:0025,771,01008,802,7W9,1SW00
2017-07-13 21:00:0028,458,71008,404,1SW7,9SW200,0
2017-07-13 20:00:0031,343,81008,305,0SW10,0W900,1
2017-07-13 19:00:0033,436,11008,807,9S13,0S3180,8
2017-07-13 18:00:0035,033,61009,409,1S17,2S5062,1
2017-07-13 17:00:0035,132,91009,709,4S17,4SE6603,7
2017-07-13 16:00:0036,130,11010,1010,1S20,0S7735,4
2017-07-13 15:00:0035,034,01010,4010,1SW19,0SW8306,5
2017-07-13 14:00:0033,139,31010,6010,8S20,2SE8396,7
2017-07-13 13:00:0033,935,21011,1012,5S23,0S8026,1
2017-07-13 12:00:0036,529,21011,108,9S20,7S7094,7
2017-07-13 11:00:0036,628,21011,005,4S11,7S5753,1
2017-07-13 10:00:0033,932,71010,804,4SE9,2SE4161,6
2017-07-12 20:00:0032,041,21009,506,7S14,5SW1170,1
2017-07-12 19:00:0033,737,31009,707,7SW16,3S3310,8
2017-07-12 18:00:0033,835,01010,3011,2SW21,3SW4532,0
2017-07-12 17:00:0034,533,61010,7012,2S26,3SW6003,5
2017-07-12 16:00:0034,631,71011,009,6S19,4S5604,0
2017-07-12 15:00:0033,628,81011,308,3SW17,9SW5344,4
2017-07-12 14:00:0033,328,81011,608,7SW18,9S6705,5
2017-07-12 13:00:0032,332,21011,9010,3S24,5S6165,0
2017-07-12 12:00:0036,823,01012,109,9SE23,9S6994,7
2017-07-12 11:00:0034,724,11011,807,3E17,3E5903,2
2017-07-12 10:00:0030,333,11011,607,0NE18,1NE3981,6
2017-07-12 09:00:0026,043,61011,606,3E13,9NE2450,6
2017-07-12 08:00:0022,550,41011,505,1E12,5E1100,1
2017-07-12 07:00:0021,650,01011,307,2E15,3E130
2017-07-12 06:00:0021,647,51011,006,1E13,5E-10
2017-07-12 05:00:0021,943,81010,605,3E11,5E-10
2017-07-12 04:00:0022,441,21010,407,5E14,1E-10
2017-07-12 03:00:0021,149,41010,405,3E13,2NE-10
2017-07-12 02:00:0021,453,51010,402,5NE5,8NE-10
2017-07-12 01:00:0022,354,11010,303,4N12,4N-10
2017-07-12 00:00:0023,450,21009,903,7NW6,8NW00
2017-07-11 23:00:0024,348,11009,604,3NW11,1NW00
2017-07-11 22:00:0026,044,61009,005,0NW9,9NW00
2017-07-11 21:00:0028,340,31008,407,7NW16,4NW120,0
2017-07-11 20:00:0030,237,61008,209,9NW26,3NW810,1
2017-07-11 19:00:0033,033,31008,6011,5NW26,4NW3970,9
2017-07-11 18:00:0035,030,01009,1012,0W22,3NW5732,3
2017-07-11 17:00:0035,730,91009,4011,3W24,0W7234,0
2017-07-11 16:00:0036,623,21009,6011,6SW21,0W8435,7
2017-07-11 15:00:0034,627,31009,7012,6SW22,6SW8996,8
2017-07-11 14:00:0031,937,21009,9010,4SW19,6SW9026,9
2017-07-11 13:00:0031,038,31010,5011,5S20,6SW8686,3
2017-07-11 12:00:0030,936,41010,607,5E19,0N7734,9
2017-07-11 11:00:0028,344,31010,907,0NE19,1NE6363,3
2017-07-11 10:00:0024,354,41011,009,6E18,4E4701,7
2017-07-11 09:00:0022,757,21010,5011,6NE24,3N2980,6
2017-07-11 08:00:0019,468,41010,407,2NE16,0N1390,1
2017-07-11 07:00:0018,670,71010,206,3NE15,4N190
2017-07-11 06:00:0019,069,11010,007,6NE16,8NE-10
2017-07-11 05:00:0019,269,11009,907,6N16,4NE-10
2017-07-11 04:00:0018,872,11009,907,1NE14,5NE-10
2017-07-11 03:00:0018,275,11009,703,9N13,9N00
2017-07-11 02:00:0018,774,41009,703,3N9,4NE00
2017-07-11 01:00:0019,273,51009,502,0NW8,1NW00
2017-07-11 00:00:0020,468,81009,305,6NW14,1N00
2017-07-10 23:00:0021,265,81008,908,2NW16,6NW00
2017-07-10 22:00:0022,263,81008,1010,4NW22,5N00
2017-07-10 21:00:0023,859,91007,4013,9NW31,2NW110,0
2017-07-10 20:00:0025,753,71007,0017,6NW33,7NW840,1
2017-07-10 19:00:0027,947,61006,8017,5NW34,3NW4000,8
2017-07-10 18:00:0029,742,61007,2018,3NW36,8NW5752,1
2017-07-10 17:00:0030,939,81007,6017,0NW34,8NW7203,7
2017-07-10 16:00:0031,639,51008,0016,4NW32,2N8275,2
2017-07-10 15:00:0030,742,31008,6015,9NW35,4NW8806,3
2017-07-10 14:00:0029,345,31009,5010,7W25,2NW8876,6
2017-07-10 13:00:0027,946,41010,2011,3SW22,3SW8556,0
2017-07-10 12:00:0026,848,81010,908,2SW16,7SW7604,7
2017-07-10 11:00:0025,252,71011,205,0S16,1S6263,2
2017-07-10 10:00:0023,060,01011,504,4W11,4N4631,7
2017-07-10 09:00:0021,267,01011,803,3SW8,8W2930,6
2017-07-10 08:00:0017,283,01011,902,7SW11,5W1380,1
2017-07-10 07:00:0015,687,91011,702,2SW4,3SW180
2017-07-10 06:00:0015,986,41011,502,7SE7,0SE00
2017-07-10 05:00:0016,583,21011,202,1W5,8N00
2017-07-10 04:00:0016,984,41011,302,8NW13,1NE00
2017-07-10 03:00:0017,382,81011,303,1NW6,3NW00
2017-07-10 02:00:0017,779,71011,303,4NW7,8NW00
2017-07-10 01:00:0018,576,91011,405,2NW11,6NW00
2017-07-10 00:00:0019,274,31011,408,2NW23,0NW00
2017-07-09 23:00:0019,971,21011,108,8NW18,4N00
2017-07-09 22:00:0020,669,61010,6012,6NW27,5NW00
2017-07-09 21:00:0021,865,91009,9018,5NW40,3NW90,0
2017-07-09 20:00:0023,759,11009,6016,8NW35,7NW870,1
2017-07-09 19:00:0026,451,01009,5020,9NW43,2NW4050,9
2017-07-09 18:00:0030,041,21009,6017,9NW36,9N5732,4
2017-07-09 17:00:0032,236,71009,9016,7NW36,9NW7164,1
2017-07-09 16:00:0032,736,61010,5012,6NW27,6NW8175,6
2017-07-09 15:00:0031,741,01011,2010,5W22,5NW8716,7
2017-07-09 14:00:0030,344,21012,109,1SW19,6SW8767,1
2017-07-09 13:00:0028,747,71012,808,2SW15,7SW8446,5
2017-07-09 12:00:0027,252,31013,405,4SW12,8S7495,1
2017-07-09 11:00:0024,359,81013,703,7SE10,8SE6173,4
2017-07-09 10:00:0022,069,71013,804,9SE9,4SE4551,9
2017-07-09 09:00:0020,477,01013,706,3S15,2S2830,7
2017-07-09 08:00:0017,589,61013,602,3N9,2SW1270,1
2017-07-09 07:00:0016,691,11013,101,6N6,9NW150
2017-07-09 06:00:0017,189,41012,606,1NW13,8N00
2017-07-09 05:00:0017,389,31012,609,8NW22,3N00
2017-07-09 04:00:0017,189,31012,706,2NW18,5NW00
2017-07-09 03:00:0017,588,01012,806,7NW15,0NW00
2017-07-09 02:00:0017,787,31013,104,5NW15,6NW00
2017-07-09 01:00:0018,484,71013,404,7NW12,9NW00
2017-07-09 00:00:0018,882,71013,509,6NW23,3NW00
2017-07-08 23:00:0019,281,01013,4011,9NW25,1NW00
2017-07-08 22:00:0019,579,01012,9015,4NW30,1NW00
2017-07-08 21:00:0020,275,81012,2018,5NW39,2NW150,0
2017-07-08 20:00:0021,471,41011,6019,6NW44,1NW900,1
2017-07-08 19:00:0024,063,01011,2018,7NW40,5NW3720,9
2017-07-08 18:00:0025,958,11011,4021,0NW40,9NW5402,3
2017-07-08 17:00:0028,551,31011,7018,2NW37,3NW6884,0
2017-07-08 16:00:0030,646,61012,3011,7NW30,9W7955,7
2017-07-08 15:00:0029,350,01012,8012,2NW24,3NW8516,8
2017-07-08 14:00:0028,552,11013,509,3W25,4W8577,1
2017-07-08 13:00:0026,357,41014,408,1S15,7S8246,5
2017-07-08 12:00:0025,259,41014,7011,0S23,2SW7375,1
2017-07-08 11:00:0024,561,61014,8011,2S21,9S5923,3
2017-07-08 10:00:0022,767,71014,609,1E18,7E4621,9
2017-07-08 09:00:0021,372,71014,1011,1NW23,3NW2770,6
2017-07-08 08:00:0019,080,81013,7013,1NW28,9N1230,1
2017-07-08 07:00:0018,184,51013,4011,3NW25,7NW150
2017-07-08 06:00:0018,284,71013,1011,0NW24,6NW00
2017-07-08 05:00:0018,483,01013,009,6NW24,9NW00
2017-07-08 04:00:0018,881,81013,2014,1NW32,4NW00
2017-07-08 03:00:0018,980,41013,6011,9NW24,3NW00
2017-07-08 02:00:0019,278,61013,8013,3NW28,2N00
2017-07-08 01:00:0019,477,81014,1010,1NW22,7N00
2017-07-08 00:00:0019,677,71014,2017,9NW35,5N-10
2017-07-07 23:00:0019,776,21014,0015,5NW38,5NW-10
2017-07-07 22:00:0019,975,61013,2016,7NW32,2NW00
2017-07-07 21:00:0020,772,21012,6017,2NW41,2NW100,0
2017-07-07 20:00:0022,365,41011,8017,4NW36,1NW830,1
2017-07-07 19:00:0025,054,71011,3017,8NW36,8N3950,9
2017-07-07 18:00:0026,251,41011,6021,1NW38,8NW5602,2
2017-07-07 17:00:0026,850,61012,0019,4NW45,5NW7063,9
2017-07-07 16:00:0027,847,31012,2019,9NW43,6W8155,5
2017-07-07 15:00:0028,845,31012,3016,9NW42,3NW8756,7
2017-07-07 14:00:0027,947,31012,7016,9NW35,8NW8857,1
2017-07-07 13:00:0027,248,81013,6015,8NW32,2N8516,5
2017-07-07 12:00:0026,052,01013,9011,4NW23,6NW7254,9
2017-07-07 11:00:0024,057,91014,0011,7NW27,2N5073,0
2017-07-07 10:00:0022,961,71014,4010,5NW28,9N4251,6
2017-07-07 09:00:0021,468,01014,606,2N12,7N2940,6
2017-07-07 08:00:0018,381,01014,305,5NW13,0N1290,1
2017-07-07 07:00:0017,383,01013,907,3NW17,1NW180
2017-07-07 06:00:0017,681,71013,609,8NW18,7NW00
2017-07-07 05:00:0017,881,51013,208,9NW19,5NW00
2017-07-07 04:00:0018,378,61013,207,4NW16,5NW00
2017-07-07 03:00:0018,777,01013,3010,4N23,3N00
2017-07-07 02:00:0018,877,61013,5013,6NW29,2NW00
2017-07-07 01:00:0018,778,71013,9010,7NW23,2NW00
2017-07-07 00:00:0018,778,61013,9010,0NW21,8NW-10
2017-07-06 23:00:0018,975,11013,7012,7NW27,8NW-10
2017-07-06 22:00:0019,668,31012,6011,4NW25,9NW00
2017-07-06 21:00:0020,864,11011,8011,7NW27,8NW100,0
2017-07-06 20:00:0022,657,71011,0013,6NW29,4N840,1
2017-07-06 19:00:0026,144,61010,6012,7NW26,6NW4020,8
2017-07-06 18:00:0028,039,61010,6013,3NW28,6NW5722,1
2017-07-06 17:00:0028,539,01010,9013,1NW27,8N7093,6
2017-07-06 16:00:0028,638,41011,3010,7NW24,5W8165,0
2017-07-06 15:00:0028,039,31011,8010,7NW24,6NW8155,7
2017-07-06 14:00:0026,943,81012,0012,0NW25,2NW8045,6
2017-07-06 13:00:0025,256,71012,4010,3SW26,3S5974,4
2017-07-06 12:00:0023,164,61012,6010,6SW22,5SW4722,8
2017-07-06 10:00:0021,764,41012,507,5NW18,0NW2751,1
2017-07-06 09:00:0020,868,31012,607,6N15,5NW2760,6
2017-07-06 08:00:0017,583,01012,405,6N12,3N1380,1
2017-07-06 07:00:0016,288,51011,707,0NW16,0NW170
2017-07-06 06:00:0016,586,81011,206,7NW14,9NW00
2017-07-06 05:00:0017,085,51011,107,2NW15,7NW-10
2017-07-06 04:00:0017,585,31011,107,2NW16,4NW00
2017-07-06 03:00:0018,384,31011,206,8NW16,6NW00
2017-07-06 02:00:0018,482,91011,205,9NW15,7W-10
2017-07-06 01:00:0019,078,21011,1010,3NW24,0NW-10
2017-07-06 00:00:0018,882,11011,007,9NW20,3W-10
2017-07-05 23:00:0019,077,51010,409,1NW21,9NW-10
2017-07-05 22:00:0019,771,61009,8011,9NW27,5NW00
2017-07-05 21:00:0021,164,91009,4014,3NW33,0NW110,0
2017-07-05 20:00:0022,758,41008,9017,0NW35,2NW950,1
2017-07-05 19:00:0025,051,01008,7018,5NW40,4NW3950,9
2017-07-05 18:00:0026,548,01009,0018,2NW39,2NW5552,3
2017-07-05 17:00:0027,345,81009,4015,8NW32,3W6003,6
2017-07-05 16:00:0028,943,81009,5015,5W34,4NW8225,6
2017-07-05 15:00:0029,742,81009,7014,3W33,0W8776,8
2017-07-05 14:00:0029,444,81010,1012,3SW26,6SW8837,1
2017-07-05 13:00:0028,249,01010,6010,1SW22,5SW8466,5
2017-07-05 12:00:0026,253,81010,805,4W17,2SW7095,0
2017-07-05 11:00:0024,359,41010,808,5NW20,7NW4512,8
2017-07-05 10:00:0022,466,01010,809,4NW21,6N2581,2
2017-07-05 09:00:0021,172,01010,609,5NW19,7NW1610,4
2017-07-05 08:00:0020,179,61010,306,1NW14,0NW480,0
2017-07-05 07:00:0019,781,21010,304,1N10,8N60
2017-07-05 06:00:0019,483,61010,005,0NW12,3NW-10
2017-07-05 05:00:0019,085,41009,904,7NW10,7NW-10
2017-07-05 04:00:0019,085,51010,106,0NW12,3N-10
2017-07-05 03:00:0019,284,41010,205,3NW13,5NW-10,0
2017-07-05 02:00:0019,288,01010,503,6W14,3NW-10
2017-07-05 01:00:0019,787,51010,701,9NE5,6SE00
2017-07-05 00:00:0019,881,81010,203,2N6,7N-10
2017-07-04 23:00:0020,083,71009,803,6W10,3NW-10
2017-07-04 22:00:0020,885,11009,504,3SW10,7W00
2017-07-04 21:00:0022,080,41009,006,6SW13,4S160,0
2017-07-04 20:00:0023,674,31008,509,9S17,6S910,2
2017-07-04 19:00:0026,264,71008,809,2S18,2SW3711,0
2017-07-04 18:00:0027,560,61009,2011,7S23,3S5442,4
2017-07-04 17:00:0027,261,11009,4012,5SE27,2SE6834,2
2017-07-04 16:00:0026,762,41009,6014,9SE27,4E7045,4
2017-07-04 15:00:0026,762,51009,8018,7SE39,5E8096,8
2017-07-04 14:00:0026,960,81010,2021,2SE39,4SE8237,1
2017-07-04 13:00:0027,055,91010,5022,1SE45,3SE8416,8
2017-07-04 12:00:0028,341,61010,6018,0SE38,5E7435,2
2017-07-04 11:00:0028,137,91010,6017,1SE31,8E6143,5
2017-07-04 10:00:0026,639,91010,8014,9SE29,0SE4571,9
2017-07-04 09:00:0024,050,91011,005,9E18,4E2930,7
2017-07-04 08:00:0019,465,01010,702,6E9,4E1390,1
2017-07-04 07:00:0018,267,41010,501,6N6,3N190
2017-07-04 06:00:0018,465,81010,403,7NE8,2N-10
2017-07-04 05:00:0018,761,71010,702,7E10,4E-10
2017-07-04 04:00:0019,257,41010,903,7E10,1NE-10
2017-07-04 03:00:0019,756,11011,003,9E8,6E-10
2017-07-04 02:00:0020,155,81011,002,9NE8,0E00
2017-07-04 01:00:0020,654,51011,103,4NE7,8NE-10
2017-07-04 00:00:0021,451,21011,003,9NW6,7N00
2017-07-03 23:00:0022,649,41010,701,9NW7,1W-10
2017-07-03 22:00:0023,647,81010,202,0SW11,9NW00
2017-07-03 21:00:0025,344,01009,803,7W8,5SW120,0
2017-07-03 20:00:0027,139,61009,706,5SW13,9S860,2
2017-07-03 19:00:0030,431,91009,908,6S16,9S4031,0
2017-07-03 18:00:0031,928,01010,3011,6S20,6S5812,5
2017-07-03 17:00:0032,026,31010,8011,2S19,4S7274,3
2017-07-03 16:00:0032,525,81011,3012,5S21,5SE8326,0
2017-07-03 15:00:0031,625,31011,6013,5S25,0S8847,2
2017-07-03 14:00:0030,628,21012,1013,5S28,8S8937,5
2017-07-03 13:00:0031,925,11012,6014,8S29,4S8576,9
2017-07-03 12:00:0030,832,31013,109,8S20,6S7605,4
2017-07-03 11:00:0030,830,01013,208,4S17,3S6283,6
2017-07-03 10:00:0028,232,61013,504,1SE9,3SE4692,0
2017-07-03 09:00:0024,542,31013,603,2E9,5NE3000,8
2017-07-03 08:00:0018,559,31013,803,8E7,0E1440,1
2017-07-03 07:00:0016,664,91013,602,0E6,5E200
2017-07-03 06:00:0016,861,61013,502,9NE7,7N00
2017-07-03 05:00:0017,258,71013,602,2NE6,0N00
2017-07-03 04:00:0018,057,61013,802,7NE8,3NE-10
2017-07-03 03:00:0018,553,31013,602,0NE8,8SE00
2017-07-03 02:00:0019,550,11013,702,2E8,6E00
2017-07-03 01:00:0019,951,41013,802,9E7,0E00
2017-07-03 00:00:0020,851,61013,702,8NE8,8NE-10
2017-07-02 23:00:0021,848,11013,201,2W4,1SW-10
2017-07-02 22:00:0023,340,31012,604,5S10,2S00
2017-07-02 21:00:0025,035,01012,009,3S19,7S100,0
2017-07-02 20:00:0027,830,81011,5012,5S21,0S840,2
2017-07-02 19:00:0033,020,31011,508,9SW20,7SW4061,0
2017-07-02 18:00:0032,820,31011,9010,6SW18,7SW5772,5
2017-07-02 17:00:0033,019,81012,708,7S16,6SW7234,3
2017-07-02 16:00:0032,321,81013,207,4S20,1S8326,0
2017-07-02 15:00:0032,422,21013,9012,3S23,8SW8897,2
2017-07-02 14:00:0031,721,21014,5017,5S32,4S9007,5
2017-07-02 13:00:0031,023,81015,3014,3S28,0SE8666,8
2017-07-02 12:00:0029,827,91015,6012,4S24,5S7755,3
2017-07-02 11:00:0030,522,81015,8011,8SE25,7S6433,6
2017-07-02 10:00:0028,027,11015,908,4E19,5E4772,0
2017-07-02 09:00:0025,533,91016,005,8NE13,2N3060,8
2017-07-02 08:00:0019,746,81015,904,5NE9,8NE1470,1
2017-07-02 07:00:0018,150,11015,503,6E7,6E200
2017-07-02 06:00:0018,947,71015,205,1E9,1E-10
2017-07-02 05:00:0020,543,21014,706,6E16,4E-10
2017-07-02 04:00:0022,238,91014,608,0E20,3NE-10
2017-07-02 03:00:0023,434,31014,7010,9NE24,2E00
2017-07-02 02:00:0023,137,51015,0011,0NE27,1NE-10
2017-07-02 01:00:0022,043,51015,309,9NE31,5NE-10
2017-07-02 00:00:0020,450,21015,105,4N9,6N-10
2017-07-01 23:00:0020,951,31014,305,8NW10,2N00
2017-07-01 22:00:0022,447,31013,606,1NW14,7N00
2017-07-01 21:00:0024,341,01012,9011,6NW30,0N120,0
2017-07-01 20:00:0026,235,81012,4014,8NW32,6NW890,1
2017-07-01 19:00:0028,830,01012,3017,3NW35,0NW4111,0
2017-07-01 18:00:0031,424,91012,7016,9NW35,1NW5802,4
2017-07-01 17:00:0032,616,31013,5016,1N36,0N7344,1
2017-07-01 16:00:0032,016,91014,3014,7NE32,5N8475,8
2017-07-01 15:00:0030,519,81015,1015,1NE39,6N9036,8
2017-07-01 14:00:0029,023,41015,7017,9N33,9N9137,0
2017-07-01 13:00:0027,326,91016,4015,4N32,0N8826,4
2017-07-01 12:00:0025,831,31017,0015,4NE31,1NE7885,0
2017-07-01 11:00:0023,838,41017,4011,2N26,1N6493,4
2017-07-01 10:00:0021,045,41017,8011,4NE25,3N4811,8
2017-07-01 09:00:0019,051,91017,9016,2NE36,2N3080,7
2017-07-01 08:00:0017,058,91017,6020,6N38,2NE1480,1
2017-07-01 07:00:0016,362,41017,5016,3NE33,0N200
2017-07-01 06:00:0016,860,21017,2014,6NE30,7N00
2017-07-01 05:00:0016,559,61017,208,4N24,1N00
2017-07-01 04:00:0017,056,51017,108,0N23,9N00
2017-07-01 03:00:0017,553,81017,4013,8N27,5N00
2017-07-01 02:00:0017,756,11017,6012,8N34,4NE-10
2017-07-01 01:00:0017,363,41017,709,2N22,8N-10
2017-07-01 00:00:0018,262,31017,4012,5N26,8N-10
2017-06-30 23:00:0018,363,01017010,8NW23,7N00
2017-06-30 22:00:0019,258,41016,3012,4NW26,1NW00
2017-06-30 21:00:0020,454,71015,7014,6NW37,2NW130,0
2017-06-30 20:00:0022,050,11015,2019,3NW35,6NW920,1
2017-06-30 19:00:0024,343,31015,0022,4NW40,3NW3920,9
2017-06-30 18:00:0025,540,51015,1022,8NW45,3N5702,3
2017-06-30 17:00:0026,039,71015,7022,1NW43,7N7184,0
2017-06-30 16:00:0026,241,61016,1019,8NW41,5N8465,7
2017-06-30 15:00:0025,543,11016,5021,0NW41,9NW8316,4
2017-06-30 14:00:0025,140,41016,7017,4NW40,1N6405,3
2017-06-30 13:00:0024,638,11017,2016,2N32,1N5974,9
2017-06-30 12:00:0024,339,41017,8015,6N31,3N7684,9
2017-06-30 11:00:0023,342,71018,0018,5N33,5N6673,5
2017-06-30 10:00:0021,149,21018,2016,4N32,7N4791,9
2017-06-30 09:00:0019,456,01018,4016,5N34,2N3050,7
2017-06-30 08:00:0016,967,61018,4010,5N20,4N1420,1
2017-06-30 07:00:0015,472,21018,1010,3N22,5NW190
2017-06-30 06:00:0015,471,11017,903,4E9,9E00
2017-06-30 05:00:0016,067,01017,309,0N32,3N-10
2017-06-30 04:00:0016,266,01017,0012,5NW22,2N00
2017-06-30 03:00:0016,863,61017,2016,4N29,9N00
2017-06-30 02:00:0017,066,01017,2013,6N24,2N00
2017-06-30 01:00:0017,367,21017,0014,6N26,8N00
2017-06-30 00:00:0017,667,11016,6015,2N31,4N00
2017-06-29 23:00:0018,067,21015,9015,8N33,8N00
2017-06-29 22:00:0018,563,81014,7020,0NW42,9NW00
2017-06-29 21:00:0019,560,61014,0020,7NW40,2N110,0
2017-06-29 20:00:0021,054,21013,4024,5N49,7NW950,1
2017-06-29 19:00:0023,346,81013,1025,9N46,4N4070,9
2017-06-29 18:00:0024,942,81013,1023,9NW45,5NW5742,4
2017-06-29 17:00:0025,640,31013,4025,3N45,8N7224,1
2017-06-29 16:00:0026,338,71013,6023,6NW44,2NW8395,7
2017-06-29 15:00:0026,137,11014,1019,7NW46,0NW8956,9
2017-06-29 14:00:0025,934,41014,5020,1NW43,1N9067,3
2017-06-29 13:00:0025,039,81014,9019,4N39,2N8356,4
2017-06-29 12:00:0024,043,01015,0018,2N35,1NW6844,8
2017-06-29 11:00:0023,144,51015,3015,9N39,4NW5143,0
2017-06-29 10:00:0021,647,81015,7014,3N33,6N4031,8
2017-06-29 09:00:0020,656,31015,809,2N18,7NW3130,7
2017-06-29 08:00:0016,975,41015,606,1NW21,9NW1470,1
2017-06-29 07:00:0015,480,81015,304,3NW13,1NW190
2017-06-29 06:00:0015,479,11014,707,1NW16,5NW00
2017-06-29 05:00:0016,079,21014,507,9NW20,8NW00
2017-06-29 04:00:0015,580,61014,407,4NW14,4N00
2017-06-29 03:00:0015,982,11014,005,3NW12,0NW00
2017-06-29 02:00:0017,077,41013,907,4NW16,7NW00
2017-06-29 01:00:0017,671,91014,109,7NW21,6N00
2017-06-29 00:00:0017,972,81013,809,8NW24,2N00
2017-06-28 23:00:0018,373,51013,409,1NW18,1NW00
2017-06-28 22:00:0019,370,31012,6011,6NW26,9NW00
2017-06-28 21:00:0020,663,41012,0014,8NW36,8NW130,0
2017-06-28 20:00:0022,157,71011,3016,9NW41,8NW880,2
2017-06-28 19:00:0024,650,11011,2018,6NW37,6N3871,0
2017-06-28 18:00:0024,452,41011,5017,0NW34,5NW3781,9
2017-06-28 17:00:0025,157,41011,7018,9NW39,7N4643,3
2017-06-28 16:00:0026,160,61012,0017,5NW40,1NW5434,5
2017-06-28 15:00:0024,966,41012,3013,8NW30,6NW4113,7
2017-06-28 14:00:0025,761,41012,8014,0NW31,7W5155,0
2017-06-28 13:00:0026,055,31013,0016,5NW34,4W5524,9
2017-06-28 12:00:0025,658,01013,1014,2NW33,6W5374,3
2017-06-28 11:00:0025,061,71013,4013,1NW27,8NW4843,0
2017-06-28 10:00:0023,170,51013,5012,6W34,1NW3601,6
2017-06-28 09:00:0021,878,01013,6010,0W26,6W2380,6
2017-06-28 08:00:0018,891,41013,507,0W16,1W1470,1
2017-06-28 07:00:0017,594,71013,306,3W11,8W200
2017-06-28 06:00:0017,494,01013,205,1W9,7W00
2017-06-28 05:00:0017,592,81013,204,8W13,9NW-10
2017-06-28 04:00:0017,791,81013,205,0W10,4W00
2017-06-28 03:00:0018,189,71013,504,7W16,1NW00
2017-06-28 02:00:0018,587,01013,904,6W11,9NW00
2017-06-28 01:00:0018,984,41013,904,6NW10,8N00
2017-06-28 00:00:0019,382,21013,706,3NW16,3NW00
2017-06-27 23:00:0019,879,11013,407,0NW15,0NW00
2017-06-27 22:00:0020,475,01012,409,0NW20,0NW00
2017-06-27 21:00:0021,469,41011,6014,5NW32,4NW80,0
2017-06-27 20:00:0023,261,01011,1017,9NW40,2N890,2
2017-06-27 19:00:0025,652,91010,8018,3NW34,0NW4061,1
2017-06-27 18:00:0026,949,11010,8019,6NW37,7NW5712,5
2017-06-27 17:00:0028,147,91011,1019,0NW42,3NW7134,3
2017-06-27 16:00:0028,844,41011,2016,7NW36,1NW8205,9
2017-06-27 15:00:0029,242,41011,1017,8NW34,9NW8727,0
2017-06-27 14:00:0029,142,01011,3014,5NW30,3NW8797,3
2017-06-27 13:00:0028,744,11011,4012,4NW25,7NW8476,6
2017-06-27 12:00:0027,347,41011,4011,8NW24,0NW7565,1
2017-06-27 11:00:0025,352,51011,5012,9NW30,0N6273,4
2017-06-27 10:00:0023,458,61011,4014,2N26,1NW4571,9
2017-06-27 09:00:0022,265,81011,608,3N25,2N3200,7
2017-06-27 08:00:0018,281,11011,304,7N10,1N1020,1
2017-06-27 07:00:0016,683,11010,603,4NW8,4NW110
2017-06-27 06:00:0016,484,31010,201,8N5,5N00
2017-06-27 05:00:0016,683,01009,802,4NW13,3NW00
2017-06-27 04:00:0017,279,91009,503,9NW14,7NW-10
2017-06-27 03:00:0018,077,61009,5010,3NW20,6N00
2017-06-27 02:00:0018,279,01009,6011,4NW24,2N00
2017-06-27 01:00:0018,278,71009,5010,2NW27,7N00
2017-06-27 00:00:0018,573,51009,407,0NW19,3NW-10
2017-06-26 23:00:0019,274,11009,3014,8NW34,9NW00
2017-06-26 22:00:0019,773,51008,7015,0NW33,7NW00
2017-06-26 21:00:0020,966,61008,0017,9NW40,6NW90,0
2017-06-26 20:00:0023,457,41007,3018,4NW44,7W920,1
2017-06-26 19:00:0026,750,71007,2016,8NW36,3NW4071,0
2017-06-26 18:00:0028,647,11007,4013,6NW33,1NW5752,4
2017-06-26 17:00:0029,047,31008,1015,0NW33,3NW7204,2
2017-06-26 16:00:0029,547,01008,5014,6NW31,5NW8315,9
2017-06-26 15:00:0029,944,41009,0012,6W28,9S8817,1
2017-06-26 14:00:0029,845,01009,6010,3SW21,2SW8897,3
2017-06-26 13:00:0028,347,11010,0010,1S19,3SW8546,6
2017-06-26 12:00:0026,550,31010,505,1NW17,1S7675,1
2017-06-26 11:00:0024,754,51010,804,4E15,1SE6373,5
2017-06-26 10:00:0023,160,31010,905,5E12,3NW4751,9
2017-06-26 09:00:0021,767,71010,803,6N11,8NW3060,7
2017-06-26 08:00:0017,386,11010,802,2W6,2NW1490,1
2017-06-26 07:00:0015,390,01010,601,8SW9,6W210
2017-06-26 06:00:0015,388,01010,402,3SE10,7S00
2017-06-26 05:00:0015,186,91010,104,4NW9,8NW00
2017-06-26 04:00:0015,886,61010,103,4NW9,3NW00
2017-06-26 03:00:0016,483,71009,901,9S11,9SE00
2017-06-26 02:00:0017,576,81009,703,2NW12,0N-10
2017-06-26 01:00:0018,572,31009,709,4NW20,7N00
2017-06-26 00:00:0018,867,01009,508,1NW16,1N00
2017-06-25 23:00:0019,568,61009,0011,0NW27,6NW00
2017-06-25 22:00:0020,365,71007,9011,0NW27,1NW00
2017-06-25 21:00:0021,761,31006,8014,7NW33,0NW160,0
2017-06-25 20:00:0024,753,01006,1012,6NW29,1NW960,1
2017-06-25 19:00:0027,548,01005,9012,5NW26,4NW3410,8
2017-06-25 18:00:0028,249,21006,2013,3NW29,1W4181,9
2017-06-25 17:00:0026,759,41006,9011,5NW26,8NW4702,7
2017-06-25 16:00:0024,180,81007,404,9W15,6W5513,7
2017-06-25 15:00:0020,588,61007,846,2N17,2N2391,6
2017-06-25 14:00:0024,158,41009,30,411,4NW29,7NW1000,5
2017-06-25 13:00:0028,144,91009,7014,1NW33,9N5053,4
2017-06-25 12:00:0025,754,71009,7115,1NW31,9N4552,6
2017-06-25 11:00:0027,143,01009,1021,0N37,7NW5342,4
2017-06-25 10:00:0026,151,01009,109,9NW38,1NW2770,9
2017-06-25 09:00:0024,157,91008,706,3NW16,7N1980,4
2017-06-25 08:00:0022,360,61009,107,3NW16,9NW440,0
2017-06-25 07:00:0022,259,31008,809,7E24,8E50
2017-06-25 06:00:0022,757,41008,9012,3E25,1E-10
2017-06-25 05:00:0023,455,41009,20,29,1NE22,6NE-10
2017-06-25 04:00:0023,254,81010,004,2E15,0NE-10
2017-06-25 03:00:0024,549,41010,804,3N17,9SE00
2017-06-25 02:00:0024,549,91010,304,3E11,6SE-10
2017-06-25 01:00:0025,644,91009,806,5NE19,6NE-10
2017-06-25 00:00:0026,045,91009,207,6NE17,7NE-10
2017-06-24 23:00:0027,437,51009,306,3NE13,3NE-10
2017-06-24 22:00:0028,136,01010,206,6NE13,2N-10
2017-06-24 21:00:0028,833,81010,4010,6N23,9N90
2017-06-24 20:00:0029,334,61010,5011,0N33,1NW350,0
2017-06-24 19:00:0029,534,51010,8015,6N40,0N780,1
2017-06-24 18:00:0030,334,51011,2015,6N31,4NW1050,4
2017-06-24 17:00:0030,632,11012,2023,1N45,9N2021,2
2017-06-24 16:00:0032,228,71012,7022,0N41,3NW3442,6
2017-06-24 15:00:0033,026,51013,2023,8N42,2N5094,0
2017-06-24 14:00:0035,122,01013,1022,3N44,5N5674,8
2017-06-24 13:00:0035,321,91013,0021,8N40,8N7836,2
2017-06-24 12:00:0033,224,81013,8018,5N38,6N5053,7
2017-06-24 11:00:0032,328,81013,7014,3NE32,8N4892,8
2017-06-24 10:00:0030,235,61014,109,0NE18,3E4631,9
2017-06-24 09:00:0026,842,31014,108,0NE17,8NE2600,7
2017-06-24 08:00:0024,547,71013,7011,2NE28,3NE1040,1
2017-06-24 07:00:0023,155,21013,809,4NE23,4N150
2017-06-24 06:00:0022,961,51012,70,211,6E26,9NE-10
2017-06-24 05:00:0023,956,41014,105,9E22,4E-10
2017-06-24 04:00:0023,953,31014,903,1W8,9W00
2017-06-24 03:00:0024,450,91015,204,2W10,0W00
2017-06-24 02:00:0024,550,21015,502,2SW6,9NW-10
2017-06-24 01:00:0024,650,11015,504,2NW9,7NW00
2017-06-24 00:00:0024,752,91015,607,4NW19,9NW00
2017-06-23 23:00:0025,253,51015,305,2NW12,4NW-10
2017-06-23 22:00:0027,944,21014,805,6W15,1NW00
2017-06-23 21:00:0031,425,91014,708,0NE17,4NE210,0
2017-06-23 20:00:0032,922,51014,5010,6NE20,5N1030,2
2017-06-23 19:00:0035,318,51014,5011,6NE23,7NE3310,9
2017-06-23 18:00:0035,620,61014,8012,7NW23,0NW5122,3
2017-06-23 17:00:0034,527,91015,7015,0NW32,9NW6584,0
2017-06-23 16:00:0034,032,31016,3015,7W28,8W7725,7
2017-06-23 15:00:0034,532,91016,7012,0SW24,4W8346,9
2017-06-23 14:00:0032,532,81017,1011,5SW20,1S8577,3
2017-06-23 13:00:0031,639,51017,4010,0SW17,8SW8316,7
2017-06-23 12:00:0030,636,81017,406,8SE13,8S7465,4
2017-06-23 11:00:0028,440,71017,508,5E17,3E6203,6
2017-06-23 10:00:0025,449,41017,908,6NE16,7NE4612,0
2017-06-23 09:00:0023,060,61018,004,2N12,0NE2920,7
2017-06-23 08:00:0019,674,41017,806,5N17,7N1370,1
2017-06-23 07:00:0018,679,61017,009,4E20,1E200
2017-06-23 06:00:0018,182,01017,007,3E19,0E00
2017-06-23 05:00:0017,781,21017,003,4E7,1E-10
2017-06-23 04:00:0017,979,11016,400,6NW3,2NE-10
2017-06-23 03:00:0018,475,21016,201,1W4,4W00
2017-06-23 02:00:0019,170,61016,401,3N3,6NW-10
2017-06-23 01:00:0019,668,01016,202,9N8,0W-10
2017-06-23 00:00:0020,268,01015,404,5NW9,6NW00
2017-06-22 23:00:0021,267,11014,905,1NW11,5NW-10
2017-06-22 22:00:0022,364,31013,906,5NW15,7NW00
2017-06-22 21:00:0024,058,31013,0012,8NW30,7NW130,0
2017-06-22 20:00:0026,550,31012,3013,7NW29,3NW940,2
2017-06-22 19:00:0029,347,41012,3015,4NW33,8W4031,0
2017-06-22 18:00:0031,644,31012,6014,3W27,1NW5702,5
2017-06-22 17:00:0032,943,01012,8011,9W22,6NW7124,3
2017-06-22 16:00:0032,247,51013,1011,7SW23,5S8196,0
2017-06-22 15:00:0030,052,21013,8013,6SW25,8S8757,2
2017-06-22 14:00:0029,153,41014,5014,3SW26,8SW8837,6
2017-06-22 13:00:0029,053,61015,0013,7SW25,6SW8526,9
2017-06-22 12:00:0028,853,61015,2010,1S19,5S7645,4
2017-06-22 11:00:0026,658,81015,104,2SE15,8SE6373,7
2017-06-22 10:00:0024,164,51015,305,0E13,4NE4762,1
2017-06-22 09:00:0022,169,71015,305,3NE12,7NE3010,8
2017-06-22 08:00:0018,883,01015,302,6NE5,4NE1430,1
2017-06-22 07:00:0016,691,51014,403,3NW7,4N270
2017-06-22 06:00:0016,491,31013,603,9N10,3NW00
2017-06-22 05:00:0016,990,21013,203,8NW8,1NW00
2017-06-22 04:00:0017,588,91013,302,2NW9,1NW-10
2017-06-22 03:00:0017,987,81013,103,0N6,7N00
2017-06-22 02:00:0018,585,21012,802,6NW5,0N-10
2017-06-22 01:00:0019,084,01012,701,7NW5,9W00
2017-06-22 00:00:0019,682,51012,203,5NW9,4NW-10
2017-06-21 23:00:0020,680,01011,406,9NW16,5NW00
2017-06-21 22:00:0021,178,11010,6011,5NW26,3N00
2017-06-21 21:00:0022,274,71010,1013,2NW37,2NW140,0
2017-06-21 20:00:0023,968,21009,7014,2NW29,4W930,2
2017-06-21 19:00:0026,660,11009,6014,1NW32,1W3841,0
2017-06-21 18:00:0028,356,41009,8013,4W29,8W5562,5
2017-06-21 17:00:0029,353,41010,1012,4NW31,3NW6914,2
2017-06-21 16:00:0030,950,81010,5012,5W31,2SW8045,9
2017-06-21 15:00:0030,354,51010,9014,0SW32,2W8446,8
2017-06-21 14:00:0029,457,61011,1010,7SW23,4S5814,9
2017-06-21 13:00:0028,960,81011,409,4SW18,7S7526,1
2017-06-21 12:00:0028,362,81011,409,9S18,9S6624,6
2017-06-21 11:00:0027,267,41011,105,3SW14,5S5252,8
2017-06-21 10:00:0024,677,91010,704,8W17,4W2381,0
2017-06-21 09:00:0023,782,81010,305,2S17,3SW1000,2
2017-06-21 08:00:0022,984,81009,904,6E13,0SE400,0
2017-06-21 07:00:0022,584,31009,703,5NE9,0NE60
2017-06-21 06:00:0022,182,11009,702,5NE7,7NE00
2017-06-21 05:00:0021,583,51009,603,9E8,7E00
2017-06-21 04:00:0021,285,81009,804,5E11,1E-10
2017-06-21 03:00:0021,089,71010,104,9NE9,1E-10
2017-06-21 02:00:0020,990,91010,002,6NW5,4N-10
2017-06-21 01:00:0021,489,51009,902,7NW6,1NW-10
2017-06-21 00:00:0021,987,81010,002,4NW6,2NW-10
2017-06-20 23:00:0022,685,61009,604,4W8,9SW00
2017-06-20 22:00:0023,681,11009,204,3SW8,5SW00
2017-06-20 21:00:0025,073,91008,902,9S7,7S190,0
2017-06-20 20:00:0026,269,31009,005,7SE12,5SE960,1
2017-06-20 19:00:0027,963,91009,209,6SE19,9S3350,8
2017-06-20 18:00:0029,060,11009,5012,4SE21,0SE5062,1
2017-06-20 17:00:0029,358,91009,7014,9SE26,0SE6573,6
2017-06-20 16:00:0029,358,71010,1015,8SE25,6SE7715,1
2017-06-20 15:00:0029,061,31010,8014,1SE27,7SE8336,2
2017-06-20 14:00:0028,165,41011,3012,6SE24,9SE8096,2
2017-06-20 13:00:0027,367,91011,3014,6SE26,2S6805,1
2017-06-20 12:00:0025,874,21011,0013,4SE26,1S4503,1
2017-06-20 11:00:0025,276,01010,7016,0SE30,4S3171,8
2017-06-20 10:00:0025,573,91010,5018,3SE35,7SE4121,6
2017-06-20 09:00:0025,372,31009,9014,6SE31,2SE2780,7
2017-06-20 08:00:0023,575,51009,608,3SE22,8SE1250,1
2017-06-20 07:00:0020,980,11009,401,9NE11,1SE160
2017-06-20 06:00:0021,181,71009,302,2E7,2N-10
2017-06-20 05:00:0021,579,31009,402,7E6,9E-10
2017-06-20 04:00:0022,277,41009,403,3E8,3NE-10
2017-06-20 03:00:0022,875,41009,805,1E10,3NE00
2017-06-20 02:00:0023,075,71009,904,8NE9,4NE-10
2017-06-20 01:00:0023,674,21010,105,8E14,9E-10
2017-06-20 00:00:0024,372,21010,007,9E14,4E-10
2017-06-19 23:00:0024,870,11009,608,0E14,9E-10
2017-06-19 22:00:0025,268,31008,907,0E12,2E00
2017-06-19 21:00:0025,965,11008,506,4SE12,7SE250,0
2017-06-19 20:00:0027,061,01008,208,9SE18,5S1060,1
2017-06-19 19:00:0027,759,51008,2010,2SE19,3S2310,5
2017-06-19 18:00:0029,054,51008,6012,8SE24,1SE4241,6
2017-06-19 17:00:0029,254,51009,0012,1SE20,3SE5943,0
2017-06-19 16:00:0028,756,01009,2012,7SE26,7SE5023,3
2017-06-19 15:00:0030,251,01009,4013,9SE29,6S8155,9
2017-06-19 14:00:0029,653,51009,4015,4SE27,0SE6755,3
2017-06-19 13:00:0029,655,21009,5016,3SE31,8SE8235,8
2017-06-19 12:00:0028,162,11009,4017,6SE31,4SE6974,5
2017-06-19 11:00:0028,162,61009,2017,3SE30,9E6003,1
2017-06-19 10:00:0027,566,51008,8014,9E30,1SE4441,7
2017-06-19 09:00:0025,675,11008,3010,9E21,3E2740,6
2017-06-19 08:00:0023,883,21007,9011,8SE23,0NE1170,1
2017-06-19 07:00:0023,675,71007,7010,1E21,4E140
2017-06-19 06:00:0024,367,51007,8010,9SE22,9SE-10
2017-06-19 05:00:0024,064,51007,805,4E18,6E00
2017-06-19 04:00:0024,363,71007,804,7SE14,4SE-10
2017-06-19 03:00:0024,965,11007,304,4E8,9E-10
2017-06-19 02:00:0025,065,71007,105,3E17,5E00
2017-06-19 01:00:0025,268,01007,308,2E21,4E00
2017-06-19 00:00:0024,970,11008,104,6NE11,4NE-10
2017-06-18 23:00:0025,369,51007,803,4E9,2S-10
2017-06-18 22:00:0026,266,01007,105,9S19,1S-10
2017-06-18 21:00:0027,757,91006,202,4SE8,4SE150,0
2017-06-18 20:00:0028,257,11005,904,9SE13,3SW900,1
2017-06-18 19:00:0031,048,71006,1011,0S23,7S3380,8
2017-06-18 18:00:0032,644,01006,3010,8SE19,3SE5132,1
2017-06-18 17:00:0033,641,31006,6010,9SE21,3SE6623,7
2017-06-18 16:00:0033,141,61006,9014,4SE31,4SE7705,2
2017-06-18 15:00:0033,439,21007,5016,2SE31,8SE8276,2
2017-06-18 14:00:0034,437,31007,7013,4S23,4S8386,5
2017-06-18 13:00:0034,233,21007,7015,2SE27,9SE8145,9
2017-06-18 12:00:0033,433,31008,0015,7SE29,7SE7374,7
2017-06-18 11:00:0032,732,61008,1015,1SE31,0S6143,2
2017-06-18 10:00:0031,535,51007,907,0E24,0SE4591,8
2017-06-18 09:00:0027,848,71007,501,8E5,5SE2930,7
2017-06-18 08:00:0023,659,21007,002,0E7,4SE1320,1
2017-06-18 07:00:0021,665,11006,702,6E9,2NE170
2017-06-18 06:00:0022,063,81006,201,5E5,7NE00
2017-06-18 05:00:0023,059,11006,102,5E9,3E00
2017-06-18 04:00:0023,956,21006,304,1NE8,5NE00
2017-06-18 03:00:0023,758,61006,803,2NE6,1E-10
2017-06-18 02:00:0025,052,41007,202,6SW9,0SW-10
2017-06-18 01:00:0025,749,81007,603,4W7,1SE-10
2017-06-18 00:00:0026,645,21008,303,0S8,5SW-10
2017-06-17 23:00:0027,242,71008,804,5N22,0NE00
2017-06-17 22:00:0027,641,21007,802,9W9,8W00
2017-06-17 21:00:0029,238,61007,003,8W11,6W150,0
2017-06-17 20:00:0031,734,31006,704,9SW10,3S870,2
2017-06-17 19:00:0034,130,81007,104,5SE10,2SE3680,9
2017-06-17 18:00:0033,432,61007,607,0SE16,6SE5352,2
2017-06-17 17:00:0035,228,81008,1012,5S25,2SE6833,8
2017-06-17 16:00:0036,425,41008,8012,5S26,6SE7945,4
2017-06-17 15:00:0035,725,21009,1014,5S34,4SE8486,4
2017-06-17 14:00:0035,727,11009,5012,8S27,0SE8556,6
2017-06-17 13:00:0036,024,91009,8013,8S26,5S8276,1
2017-06-17 12:00:0036,925,21010,0010,0S19,7S7384,7
2017-06-17 11:00:0035,525,61010,208,8E19,4E6113,2
2017-06-17 10:00:0032,331,11010,407,3E16,9E4531,8
2017-06-17 09:00:0029,139,81010,505,6E15,0E2860,7
2017-06-17 08:00:0024,154,21010,206,2E13,8E1280,1
2017-06-17 07:00:0022,657,01009,803,6E10,2E170
2017-06-17 06:00:0023,649,51009,703,8NE9,9NE-10
2017-06-17 05:00:0023,749,11010,105,2NE11,5NE-10
2017-06-17 04:00:0024,348,71010,403,7NE9,8N-10
2017-06-17 03:00:0025,844,61010,805,1E13,4E-10
2017-06-17 02:00:0026,147,31011,204,5E14,5E-10
2017-06-17 01:00:0026,846,91011,002,9SE10,0SE-10
2017-06-17 00:00:0028,045,71011,006,5NE15,9NE00
2017-06-16 23:00:0027,449,91010,403,7S10,4SE00
2017-06-16 22:00:0029,044,91009,502,0SW5,2SW00
2017-06-16 21:00:0031,437,71009,203,4S11,2S130,0
2017-06-16 20:00:0033,932,81008,805,6SW11,6S860,1
2017-06-16 19:00:0035,729,91009,106,0W18,9W3660,9
2017-06-16 18:00:0036,727,61009,608,7S19,7S5342,1
2017-06-16 17:00:0038,723,71009,9010,0S19,7S6883,8
2017-06-16 16:00:0039,021,41010,4011,9S24,3S8055,3
2017-06-16 15:00:0038,121,21010,9011,3S23,9S8506,3
2017-06-16 14:00:0037,420,41011,6015,4SE36,6E8746,6
2017-06-16 13:00:0036,225,91012,1015,4SE30,2E8416,0
2017-06-16 12:00:0033,438,91012,208,6SE20,2SE7524,7
2017-06-16 11:00:0030,250,31012,409,3S16,4SE6203,2
2017-06-16 10:00:0029,049,51012,309,0S16,8S4611,7
2017-06-16 09:00:0028,249,61011,803,5S10,1SW2880,7
2017-06-16 08:00:0023,163,51011,602,0E5,4E1300,1
2017-06-16 07:00:0020,970,21011,202,5E5,1SE180,0
2017-06-16 06:00:0020,967,61010,802,1E5,7E-10
2017-06-16 05:00:0021,464,41010,602,3NE5,7N-10
2017-06-16 04:00:0022,261,71010,304,0N12,1N00
2017-06-16 03:00:0022,761,61010,803,2NE7,6N-10
2017-06-16 02:00:0022,465,91010,801,8E6,4E-10
2017-06-16 01:00:0023,161,31010,701,3E2,9E00
2017-06-16 00:00:0024,058,11010,502,1NE4,8N00
2017-06-15 23:00:0025,052,81010,301,6N8,3NW-10
2017-06-15 22:00:0026,847,31009,604,5W16,4W00
2017-06-15 21:00:0028,743,41009,206,4NW15,7NW180,0
2017-06-15 20:00:0030,241,01009,009,3NW20,4NW890,1
2017-06-15 19:00:0032,439,91008,9010,7NW23,7NW3490,8
2017-06-15 18:00:0033,341,61009,5010,8W23,0W5262,1
2017-06-15 17:00:0031,347,51010,109,0SW16,7S6693,6
2017-06-15 16:00:0029,752,71010,8010,4SW20,9SW7835,0
2017-06-15 15:00:0028,754,11011,3011,1SW19,4S8506,1
2017-06-15 14:00:0029,052,01011,9011,6S20,1S8666,4
2017-06-15 13:00:0029,250,41012,3011,7S19,9S8385,8
2017-06-15 12:00:0028,453,11012,6011,6S29,8S7694,7
2017-06-15 11:00:0027,854,41012,307,1SE18,0S6233,2
2017-06-15 10:00:0025,760,61012,204,5E11,0E4651,8
2017-06-15 09:00:0022,670,61012,203,2NW15,9NW3010,7
2017-06-15 08:00:0017,988,21012,203,0NE6,7NE1380,1
2017-06-15 07:00:0016,093,31011,601,3NW4,8NW190
2017-06-15 06:00:0016,192,71011,201,6NW4,2N-10
2017-06-15 05:00:0016,392,61011,004,3NW8,9W00
2017-06-15 04:00:0016,591,81011,203,4NW8,2NW00
2017-06-15 03:00:0016,990,01011,402,8W8,4W00
2017-06-15 02:00:0017,288,41011,303,1W7,9W00
2017-06-15 01:00:0017,686,91010,904,6W10,9W-10
2017-06-15 00:00:0018,384,31010,604,8NW11,3NW-10
2017-06-14 23:00:0018,882,21010,106,1NW13,4NW-10
2017-06-14 22:00:0019,579,61009,507,9NW20,8NW00
2017-06-14 21:00:0021,073,11009,009,1NW26,4NW160,0
2017-06-14 20:00:0023,562,51008,5013,0NW33,4W840,1
2017-06-14 19:00:0027,252,61008,6011,2NW29,0NW3580,8
2017-06-14 18:00:0028,451,01009,2011,9SW26,0SW5332,1
2017-06-14 17:00:0028,051,51009,6012,3SW22,1SW6823,6
2017-06-14 16:00:0028,250,51010,0012,5SW23,8SW7975,0
2017-06-14 15:00:0027,750,81010,2011,5SW22,9SW8556,0
2017-06-14 14:00:0027,851,41010,7010,3SW23,2S8726,2
2017-06-14 13:00:0026,855,41011,208,7SW19,5SW7785,3
2017-06-14 12:00:0025,556,81011,108,2S16,5S5843,7
2017-06-14 11:00:0023,663,21010,705,7S13,5SW3221,8
2017-06-14 10:00:0022,966,81010,506,4S14,1S2250,9
2017-06-14 09:00:0021,972,21010,206,8S13,8S1570,4
2017-06-14 08:00:0020,977,21009,806,2S13,1S670,0
2017-06-14 07:00:0020,477,51009,504,8SE9,8SE100
2017-06-14 06:00:0020,183,61009,205,5SE13,3SE-10
2017-06-14 05:00:0019,385,21008,702,0NE9,2NE-10
2017-06-14 04:00:0020,285,31008,802,3NE7,1N-10
2017-06-14 03:00:0020,585,01009,302,8E7,3E-10
2017-06-14 02:00:0020,685,81009,403,6E8,7SE-10
2017-06-14 01:00:0020,587,61009,403,9SE10,7SE-10
2017-06-14 00:00:0019,990,01009,302,8SE7,1SE00
2017-06-13 23:00:0019,887,81008,802,5SW12,7SW-10
2017-06-13 22:00:0020,483,91008,005,2S10,6S-10
2017-06-13 21:00:0021,578,11007,408,2SE13,6SE180,0
2017-06-13 20:00:0022,972,11007,008,6S14,9SE900,1
2017-06-13 19:00:0025,064,41006,9010,2S20,6S3460,8
2017-06-13 18:00:0024,665,81007,1010,5SE19,2S3461,4
2017-06-13 17:00:0024,367,61007,2013,1SE26,5SE3722,0
2017-06-13 16:00:0024,668,11007,4014,4SE28,6SE4522,9
2017-06-13 15:00:0023,772,41007,7015,8SE29,2SE3312,4
2017-06-13 14:00:0024,270,91007,7015,3SE31,8SE3942,9
2017-06-13 13:00:0023,772,41007,8015,5SE29,8SE3412,2
2017-06-13 12:00:0022,378,41007,7013,8SE30,3S1930,8
2017-06-13 11:00:0021,980,61007,2013,7SE27,6SE1260,4
2017-06-13 10:00:0021,880,51007,0013,1SE29,7SE950,2
2017-06-13 09:00:0021,682,31006,4014,5SE27,9SE580,0
2017-06-13 08:00:0021,584,21005,8016,1SE30,4E330,0
2017-06-13 07:00:0021,483,91005,4018,4SE35,4E40
2017-06-13 06:00:0021,978,91004,7020,6E39,3E-10
2017-06-13 05:00:0023,264,31004,5017,2E43,0E00
2017-06-13 04:00:0024,253,31004,7014,7E29,4E-10
2017-06-13 03:00:0024,746,71004,909,6E26,6SE-10
2017-06-13 02:00:0024,646,41005,208,5E16,6E-10
2017-06-13 01:00:0024,847,11005,607,1E14,9E-10
2017-06-13 00:00:0024,850,21006,006,4E19,0E-10
2017-06-12 23:00:0026,246,11005,806,6E15,3E-10
2017-06-12 22:00:0027,340,51005,3011,2SE26,8SE00
2017-06-12 21:00:0027,741,81005,109,6E18,5E130
2017-06-12 20:00:0029,437,01004,9011,1SE19,7SE790,1
2017-06-12 19:00:0032,032,31004,907,0SE18,6SE3480,6
2017-06-12 18:00:0032,134,61005,1013,3SE26,4SE5251,5
2017-06-12 17:00:0032,830,71005,6016,7SE32,9SE6742,6
2017-06-12 16:00:0034,725,11006,4017,6SE39,2SE7883,6
2017-06-12 15:00:0035,221,41006,8016,4SE37,1S8494,2
2017-06-12 14:00:0035,320,61007,6018,9SE37,7SE8604,3
2017-06-12 13:00:0034,921,61008,3014,6SE27,7SE8253,8
2017-06-12 12:00:0034,322,51008,7011,0S22,0E7432,9
2017-06-12 11:00:0033,023,41009,006,3E17,3SE6212,0
2017-06-12 10:00:0029,530,01009,205,9NE12,3E4651,1
2017-06-12 09:00:0028,035,01009,105,5E175,5N2950,4
2017-06-12 08:00:0022,657,11009,003,2NW7,2NW1360,0
2017-06-12 07:00:0020,073,31009,003,7N8,5NE210
2017-06-12 06:00:0020,773,61008,602,7NE6,2E00
2017-06-12 05:00:0021,770,11008,503,0E6,9E-10
2017-06-12 04:00:0022,965,91008,604,2E9,5E00
2017-06-12 03:00:0024,160,41008,906,5NE14,9NE-10
2017-06-12 02:00:0024,357,81009,108,4NE17,5N-10
2017-06-12 01:00:0023,663,11009,302,5NE7,0NE-10
2017-06-12 00:00:0024,859,31009,203,6SE9,7E-10
2017-06-11 23:00:0025,259,31008,803,0E7,9SE-10
2017-06-11 22:00:0026,055,51008,002,7NE5,4N00
2017-06-11 21:00:0027,849,51007,603,0SW7,8S150
2017-06-11 20:00:0029,845,61007,406,6S13,4SW800,1
2017-06-11 19:00:0033,938,31007,607,8S14,0S3480,6
2017-06-11 18:00:0036,033,21007,608,3W20,0W5271,6
2017-06-11 17:00:0036,932,51008,009,5W25,1W6612,6
2017-06-11 16:00:0037,630,11008,6010,6W25,6W7973,7
2017-06-11 15:00:0037,230,81009,4010,7SW23,4SW8384,2
2017-06-11 14:00:0034,932,81009,9013,0SW23,8SW8814,3
2017-06-11 13:00:0033,833,81010,409,6SW18,9SW8423,9
2017-06-11 12:00:0032,136,51010,909,0SW15,6SW7472,9
2017-06-11 11:00:0031,136,41011,305,5SW14,5SW6272,0
2017-06-11 10:00:0028,041,71011,602,0NE6,9W4771,1
2017-06-11 09:00:0024,452,51011,702,0NE5,5N2670,4
2017-06-11 08:00:0020,561,41011,604,4E11,9E1330,1
2017-06-11 07:00:0018,966,01011,205,2N11,6N130
2017-06-11 06:00:0020,163,51010,504,5N10,2N00
2017-06-11 05:00:0020,963,91010,305,4NE14,1E00
2017-06-11 04:00:0021,063,31010,004,8SE14,2E-10
2017-06-11 03:00:0021,557,91009,803,5E7,3SE-10
2017-06-11 02:00:0021,656,91009,803,6E10,0E-10
2017-06-11 01:00:0021,955,01009,702,5N4,7NW-10
2017-06-11 00:00:0022,951,11009,801,9N4,4NW00
2017-06-10 23:00:0023,847,91009,503,7NW10,0NW-10
2017-06-10 22:00:0025,144,01009,107,4NW14,9NW00
2017-06-10 21:00:0026,542,81008,708,5NW18,4NW90
2017-06-10 20:00:0028,539,41008,4010,1NW23,6W640,1
2017-06-10 19:00:0032,032,61008,6012,2NW26,8W3840,7
2017-06-10 18:00:0034,128,21009,0014,2W27,5NW5541,7
2017-06-10 17:00:0036,023,81009,3010,5W25,3W6972,9
2017-06-10 16:00:0035,426,11009,7010,9W26,4W8124,0
2017-06-10 15:00:0033,532,61009,9010,5SW24,7NW8634,6
2017-06-10 14:00:0032,531,81010,4012,5SW26,2SW8624,5
2017-06-10 13:00:0032,128,71011,1010,4SW20,1SW7603,9
2017-06-10 12:00:0031,826,41011,705,4SE13,9E7483,2
2017-06-10 11:00:0029,827,21012,008,6E17,3E6502,2
2017-06-10 10:00:0026,334,01012,207,8NE17,4NE4521,2
2017-06-10 09:00:0024,142,01012,005,8SE14,3E3230,5
2017-06-10 08:00:0021,051,41011,505,9SE13,5S1610,1
2017-06-10 07:00:0019,846,71011,106,1E11,8NE300
2017-06-10 06:00:0019,151,51011,104,2NE11,7NE00
2017-06-10 05:00:0018,653,71011,103,8NE10,0E-10
2017-06-10 04:00:0018,258,21011,302,6NE7,4NE-10
2017-06-10 03:00:0019,156,71011,302,2N8,9N-10
2017-06-10 02:00:0019,456,41011,405,3N9,5N00
2017-06-10 01:00:0019,655,31011,504,0NW7,7NW00
2017-06-10 00:00:0020,252,61011,403,4NW9,7N00
2017-06-09 23:00:0021,456,51011,103,9NW9,2N00
2017-06-09 22:00:0022,855,51010,305,3NW13,1N00
2017-06-09 21:00:0024,948,61009,808,7NW20,6NW230
2017-06-09 20:00:0026,942,61009,6011,9NW24,5NW1120,1
2017-06-09 19:00:0027,943,51009,4012,5NW26,7NW2810,5
2017-06-09 18:00:0029,142,41009,4014,8NW30,4N3421,1
2017-06-09 17:00:0031,138,91009,6013,1NW27,6W4401,9
2017-06-09 16:00:0032,436,01010,3012,9NW27,2N7543,7
2017-06-09 15:00:0032,041,01011,109,1W23,5W7824,2
2017-06-09 14:00:0030,241,51011,9011,6SW23,0W7954,2
2017-06-09 13:00:0028,943,31012,4011,1SW21,8W7473,7
2017-06-09 12:00:0028,346,61012,406,1SW13,3SW6212,7
2017-06-09 11:00:0026,250,71012,506,7SE12,8SE6092,1
2017-06-09 10:00:0024,055,81012,706,9E14,2NE4461,1
2017-06-09 09:00:0021,465,31012,606,3E13,5E3030,5
2017-06-09 08:00:0017,779,41012,603,9NE10,4E1190,1
2017-06-09 07:00:0016,380,31012,205,2E14,6E120
2017-06-09 06:00:0015,980,71011,802,3NE9,1E00
2017-06-09 05:00:0016,380,81011,402,2E9,9SE00
2017-06-09 04:00:0016,779,71010,801,5SW5,0SE00
2017-06-09 03:00:0017,475,11010,401,9W6,5W00
2017-06-09 02:00:0018,368,51010,303,2W8,7W00
2017-06-09 01:00:0019,165,21010,303,2W8,3W00
2017-06-09 00:00:0019,862,91010,202,4W8,4W00
2017-06-08 23:00:0020,559,71009,804,0NW14,9W00
2017-06-08 22:00:0022,256,51009,206,1NW16,2NW00
2017-06-08 21:00:0023,751,61008,5011,5NW32,3NW180
2017-06-08 20:00:0026,738,71008,3010,2NW25,0NW930,1
2017-06-08 19:00:0026,939,51008,2012,8NW29,4NW2220,3
2017-06-08 18:00:0029,137,21008,3012,8NW24,6NW3150,9
2017-06-08 17:00:0031,533,01008,709,9W24,5NW4631,8
2017-06-08 16:00:0032,231,51009,307,9SW17,2S7623,3
2017-06-08 15:00:0032,029,81009,509,8SW20,6S8754,1
2017-06-08 14:00:0031,128,91009,609,7S20,6S8153,8
2017-06-08 13:00:0031,328,41009,907,2S16,3S7573,3
2017-06-08 12:00:0031,028,51010,006,6S15,4SE7292,7
2017-06-08 11:00:0030,033,31009,604,6S16,1E6241,8
2017-06-08 10:00:0027,142,41009,603,1S9,2SW4841,0
2017-06-08 09:00:0023,853,81009,602,5E6,3N3140,4
2017-06-08 08:00:0019,169,91009,602,5E6,7SE1510,1
2017-06-08 07:00:0017,374,31009,601,3E4,5E250
2017-06-08 06:00:0017,671,51009,101,9NW4,8NW00
2017-06-08 05:00:0018,169,01009,302,3N7,3N-10
2017-06-08 04:00:0018,667,91009,501,7NE4,4NE-10
2017-06-08 03:00:0019,367,11009,703,5E7,5E-10
2017-06-08 02:00:0020,164,61009,804,1NE8,6E-10
2017-06-08 01:00:0020,764,71009,703,7SE7,5SE-10
2017-06-08 00:00:0021,460,01009,603,9E8,3E-10
2017-06-07 23:00:0021,864,31009,302,6N5,2E00
2017-06-07 22:00:0022,959,81008,801,7SE7,8E00
2017-06-07 21:00:0024,750,01008,402,9SW7,5S100
2017-06-07 20:00:0026,941,21008,307,6SW16,3S610,1
2017-06-07 19:00:0030,730,81008,809,2SW18,0SW3800,5
2017-06-07 18:00:0032,926,61009,4010,9SW19,2SW5541,5
2017-06-07 17:00:0032,826,11009,6012,2SW23,3S7062,5
2017-06-07 16:00:0033,524,71010,0011,8SW21,8S8193,5
2017-06-07 15:00:0032,727,91010,509,7SW20,3S8794,1
2017-06-07 14:00:0032,530,61011,0011,8SW19,9S8994,1
2017-06-07 13:00:0032,232,01011,6013,0S23,5S8573,6
2017-06-07 12:00:0033,425,21012,007,8E18,7E7782,8
2017-06-07 11:00:0031,328,21012,5010,1NE20,5NE6531,9
2017-06-07 10:00:0027,439,01012,708,4NE18,0NE4921,0
2017-06-07 09:00:0024,048,11012,809,3NE18,1NE3210,4
2017-06-07 08:00:0019,860,11012,907,4NE19,0NE1550,1
2017-06-07 07:00:0017,366,41012,904,9NE13,5E280
2017-06-07 06:00:0016,867,71012,604,0NE7,9NE00
2017-06-07 05:00:0017,266,71012,605,2E9,8NE-10
2017-06-07 04:00:0017,563,91012,504,6NE9,5NE00
2017-06-07 03:00:0018,360,81012,505,1E13,1E-10
2017-06-07 02:00:0018,759,61012,905,1NE14,3N-10
2017-06-07 01:00:0018,265,81012,904,5N11,5N00
2017-06-07 00:00:0018,764,71012,504,6NW9,4NW00
2017-06-06 23:00:0019,861,71012,106,4N14,9N00
2017-06-06 22:00:0021,058,51011,4010,5NW22,0NW00
2017-06-06 21:00:0022,455,91010,6013,6NW30,9NW90
2017-06-06 20:00:0024,053,41010,2016,3NW36,4N580,0
2017-06-06 19:00:0026,347,81010,3021,4NW41,5N3860,5
2017-06-06 18:00:0028,643,31010,5019,8NW38,1NW5581,5
2017-06-06 17:00:0029,543,31010,7018,6NW35,9NW7043,4
2017-06-06 16:00:0030,242,51011,3015,8NW33,4N8146,0
2017-06-06 15:00:0029,940,51011,909,2NW25,2NW8737,4
2017-06-06 14:00:0028,341,41012,707,4N22,8N8968,0
2017-06-06 13:00:0027,045,31013,50,49,1N21,2N8587,4
2017-06-06 12:00:0024,852,51013,9012,8N24,5N6345,2
2017-06-06 11:00:0023,857,71014,0013,1N30,4N5493,4
2017-06-06 10:00:0022,860,01014,2011,9NW23,2N3641,8
2017-06-06 09:00:0022,360,61014,4012,6N24,0N3620,8
2017-06-06 08:00:0019,272,11014,307,8N17,8N1530,1
2017-06-06 07:00:0017,277,31014,008,0N21,6N250,0
2017-06-06 06:00:0017,576,01013,707,0N17,1NW00
2017-06-06 05:00:0018,279,81013,607,6NW15,2NW00
2017-06-06 04:00:0018,277,01013,809,0NW20,8NW-10
2017-06-06 03:00:0018,178,11014,4011,3N27,9N00
2017-06-06 02:00:0017,778,11014,609,2N19,9NW00
2017-06-06 01:00:0017,777,81014,808,8NW19,8NW00
2017-06-06 00:00:0017,976,01015,009,0NW19,9NW00
2017-06-05 23:00:0018,270,41015,008,1N18,7N-10
2017-06-05 22:00:0018,663,81014,1013,2NW29,9NW00
2017-06-05 21:00:0019,857,01013,4016,0NW32,3NW80,0
2017-06-05 20:00:0021,449,31012,6019,7NW42,7NW530,1
2017-06-05 19:00:0024,142,61012,3020,1NW38,2NW3850,8
2017-06-05 18:00:0025,840,11012,3021,9NW40,1NW5592,3
2017-06-05 17:00:0027,933,81012,5019,7NW37,4NW7064,1
2017-06-05 16:00:0028,836,51013,0016,7NW36,0W8075,8
2017-06-05 15:00:0029,835,41013,3015,4NW35,7NW8667,1
2017-06-05 14:00:0027,941,31014,2012,1S26,3SW8897,5
2017-06-05 13:00:0027,837,31015,209,8SW18,3SW8577,0
2017-06-05 12:00:0025,941,41016,006,2E16,1E7785,7
2017-06-05 11:00:0024,145,31016,309,3NE19,7E6533,9
2017-06-05 10:00:0021,749,81016,607,7NE21,9E4942,1
2017-06-05 09:00:0020,652,91016,702,5N13,4SW3230,8
2017-06-05 08:00:0015,570,21016,803,1SW8,2S1590,1
2017-06-05 07:00:0012,879,21016,603,1W9,8W290
2017-06-05 06:00:0013,077,11016,302,1W6,0W00
2017-06-05 05:00:0013,375,21016,203,3NW10,3NW00
2017-06-05 04:00:0013,775,91016,202,3NW7,4N00
2017-06-05 03:00:0014,673,41016,203,2W8,8SW00
2017-06-05 02:00:0015,369,31016,604,7W17,3N00
2017-06-05 01:00:0015,969,11016,506,1NW16,6NW00
2017-06-05 00:00:0016,269,81016,405,2NW17,4NW00
2017-06-04 23:00:0016,870,21015,808,5NW15,9NW00
2017-06-04 22:00:0017,569,61014,9013,2NW28,6NW00
2017-06-04 21:00:0018,865,81014,1012,4NW25,5NW110,0
2017-06-04 20:00:0020,559,51013,5016,1NW36,3NW600,1
2017-06-04 19:00:0023,051,21012,8018,6NW40,9NW3870,8
2017-06-04 18:00:0024,447,61013,0021,6NW43,8NW5562,1
2017-06-04 17:00:0025,544,61013,0020,6NW51,5N7063,8
2017-06-04 16:00:0025,944,31013,4018,5NW38,0N8115,3
2017-06-04 15:00:0024,448,01013,7018,0NW34,6NW7205,5
2017-06-04 14:00:0024,644,71013,8016,7NW33,4NW6264,9
2017-06-04 13:00:0026,439,41014,0014,0NW30,9N8286,2
2017-06-04 12:00:0025,243,31014,4016,0NW33,7N7845,2
2017-06-04 11:00:0023,744,71014,7012,1NW24,9N6503,5
2017-06-04 10:00:0021,748,31015,4010,9N24,7N4901,9
2017-06-04 09:00:0019,859,01015,606,7NW19,4NE3180,7
2017-06-04 08:00:0016,474,21015,408,5NW19,0W1530,1
2017-06-04 07:00:0014,779,51015,007,1NW16,2NW230
2017-06-04 06:00:0014,675,81014,507,3NW17,8NW-10
2017-06-04 05:00:0015,266,01014,607,7N22,6NE00
2017-06-04 04:00:0014,366,51014,605,0N13,3N00
2017-06-04 03:00:0014,166,71014,602,2W8,6N-10
2017-06-04 02:00:0015,061,61014,504,4NW13,2N00
2017-06-04 01:00:0016,457,91014,309,4N22,1N-10
2017-06-04 00:00:0016,366,61014,308,5NW23,7N00
2017-06-03 23:00:0017,069,11013,709,3NW19,5NW00
2017-06-03 22:00:0018,066,11012,8010,7NW22,1N00
2017-06-03 21:00:0019,661,41012,2015,3NW38,2NW330
2017-06-03 20:00:0021,056,81011,6015,2NW31,9NW770,1
2017-06-03 19:00:0022,352,71011,4017,2NW35,6NW2010,5
2017-06-03 18:00:0024,048,51011,4017,2NW34,2NW2931,3
2017-06-03 17:00:0026,741,31011,7017,5NW34,4NW5633,3
2017-06-03 16:00:0027,540,81012,2018,2NW38,5NW7735,3
2017-06-03 15:00:0027,441,51012,6017,4NW35,9NW8576,7
2017-06-03 14:00:0026,943,51012,9017,7NW36,8NW8556,9
2017-06-03 13:00:0026,944,31013,4016,0NW31,3NW8146,3
2017-06-03 12:00:0026,645,31014,0012,1NW26,6W7845,4
2017-06-03 11:00:0025,248,01014,2011,0NW22,3NW6543,7
2017-06-03 10:00:0022,955,81014,608,1NW18,1NW4922,0
2017-06-03 09:00:0021,064,21014,707,6N17,9N3180,8
2017-06-03 08:00:0017,678,11014,804,1N11,8N1530,1
2017-06-03 07:00:0016,582,31014,405,1N12,0N260
2017-06-03 06:00:0016,980,51013,807,9NW22,2NW00
2017-06-03 05:00:0017,378,81013,506,6NW17,1NW00
2017-06-03 04:00:0017,872,51013,103,4W9,5W00
2017-06-03 03:00:0018,769,21012,904,5SW11,2S00
2017-06-03 02:00:0019,662,91013,002,0E6,7NE-10
2017-06-03 01:00:0020,359,41013,003,4NE8,6N-10
2017-06-03 00:00:0021,058,21012,705,8NE11,6NE-10
2017-06-02 23:00:0020,862,61012,007,4N18,9N00
2017-06-02 22:00:0020,868,81011,007,5NW18,3NW00
2017-06-02 21:00:0022,163,21010,1012,6NW28,3NW110,0
2017-06-02 20:00:0023,755,61009,7014,8NW35,3NW600,1
2017-06-02 19:00:0027,041,61009,5018,3NW41,4NW3540,8
2017-06-02 18:00:0029,833,91009,7017,1NW36,1NW5302,3
2017-06-02 17:00:0032,326,11010,1014,4NW29,6NW6764,0
2017-06-02 16:00:0033,724,71010,7011,5W24,7NW7855,7
2017-06-02 15:00:0034,422,11011,20,210,1W24,9NW8657,1
2017-06-02 14:00:0032,132,51011,509,2SW20,7S8747,4
2017-06-02 13:00:0030,338,31012,1012,5SW21,2SW8326,8
2017-06-02 12:00:0030,137,21012,409,1SW16,0S7485,4
2017-06-02 11:00:0027,842,21012,402,9N7,7N5913,6
2017-06-02 10:00:0024,350,81012,906,9N14,0N4652,0
2017-06-02 09:00:0021,061,01012,907,8N13,4N2110,6
2017-06-02 08:00:0018,473,01012,806,5N12,9N1400,1
2017-06-02 07:00:0017,479,61012,406,2NE15,1NE180
2017-06-02 06:00:0017,083,11011,802,3SE12,6E00
2017-06-02 05:00:0017,282,61011,401,5W3,7NW-10
2017-06-02 04:00:0017,781,01011,502,5W4,8W00
2017-06-02 03:00:0017,979,51011,601,3W4,6NW-10
2017-06-02 02:00:0018,278,21011,802,9NW8,2W00
2017-06-02 01:00:0018,973,21012,003,7W10,8W00
2017-06-02 00:00:0019,369,71012,001,1W6,5W00
2017-06-01 23:00:0019,968,61011,603,2NW14,6NW-10
2017-06-01 22:00:0020,964,91010,907,0NW19,5W00
2017-06-01 21:00:0023,453,51010,009,1NW21,4NW120,0
2017-06-01 20:00:0025,746,51009,609,4NW22,5NW590,1
2017-06-01 19:00:0028,538,61009,6013,6NW32,7N3370,7
2017-06-01 18:00:0029,637,61010,0014,9NW33,7NW5072,1
2017-06-01 17:00:0030,436,91010,5014,3NW34,8NW6563,7
2017-06-01 16:00:0031,537,51010,9013,6W29,4W7715,4
2017-06-01 15:00:0031,839,01011,3014,2W28,1SW8386,7
2017-06-01 14:00:0029,840,21011,9011,9SW26,1SW8657,2
2017-06-01 13:00:0029,241,11012,7010,3SW21,5S8276,6
2017-06-01 12:00:0028,442,31013,408,2SW16,4SW7505,3
2017-06-01 11:00:0027,446,21013,506,3S14,1S6253,6
2017-06-01 10:00:0024,554,91013,704,6E8,8SE4672,0
2017-06-01 09:00:0022,162,61013,705,3NE10,9NE3020,8
2017-06-01 08:00:0017,777,81013,705,0NE10,1N1410,1
2017-06-01 07:00:0016,585,21013,205,2N10,1N210,0
2017-06-01 06:00:0016,686,61012,803,6NE9,3NE00
2017-06-01 05:00:0016,684,71012,402,2S7,4W00
2017-06-01 04:00:0017,679,71012,203,0W8,1W00
2017-06-01 03:00:0018,078,11012,401,8SE5,1E-10
2017-06-01 02:00:0018,674,91012,401,1S3,5SW-10
2017-06-01 01:00:0019,370,31012,301,5W5,8W-10
2017-06-01 00:00:0020,166,71011,901,8W6,1SW00
2017-05-31 23:00:0020,763,91011,403,6NW11,8NW-10
2017-05-31 22:00:0021,761,11010,608,2NW18,0NW00
2017-05-31 21:00:0023,455,91009,9012,2NW30,0NW100,0
2017-05-31 20:00:0025,248,81009,6015,5NW31,7NW470,1
2017-05-31 19:00:0027,844,31009,7014,7NW29,9NW3560,7
2017-05-31 18:00:0029,443,41009,9014,3NW37,1W5272,1
2017-05-31 17:00:0030,641,91010,2013,1W30,0NW6773,7
2017-05-31 16:00:0030,444,31010,8013,2SW28,2SW7875,4
2017-05-31 15:00:0029,439,21011,5014,2SW27,0SW8526,7
2017-05-31 14:00:0028,343,11011,9013,3SW24,1SW8787,2
2017-05-31 13:00:0028,343,01012,4011,5SW23,4SW8376,7
2017-05-31 12:00:0027,745,41012,908,9SW17,3SW7605,4
2017-05-31 11:00:0025,648,11013,203,1E8,6SW6363,7
2017-05-31 10:00:0022,757,41013,907,6E21,8E4772,0
2017-05-31 09:00:0020,565,11014,0010,3E19,6E3090,8
2017-05-31 08:00:0017,274,51013,704,4SE15,7SE1480,1
2017-05-31 07:00:0015,081,11013,202,1N4,3N250
2017-05-31 06:00:0015,281,71012,902,3N11,5NW-10
2017-05-31 05:00:0015,781,11012,702,4N6,0NW-10
2017-05-31 04:00:0016,179,11012,502,9NE6,0NE00
2017-05-31 03:00:0016,679,01012,103,1N5,5NE-10
2017-05-31 02:00:0016,980,01012,402,4N5,0NE-10
2017-05-31 01:00:0017,477,91012,004,7NW9,2N-10
2017-05-31 00:00:0018,274,41012,004,9NW9,3NW00
2017-05-30 23:00:0019,170,31011,706,9NW14,4NW00
2017-05-30 22:00:0019,868,71011,1011,4NW23,7NW-10
2017-05-30 21:00:0020,866,71010,7012,8NW28,9NW90
2017-05-30 20:00:0022,261,41010,2015,0NW32,8NW390,1
2017-05-30 19:00:0024,454,21009,8019,0NW38,3NW3680,7
2017-05-30 18:00:0026,848,71010,0016,2NW35,4NW5372,2
2017-05-30 17:00:0028,245,11010,3014,1NW29,8NW6843,9
2017-05-30 16:00:0028,743,61010,7013,0NW28,3NW8015,7
2017-05-30 15:00:0027,848,61011,3011,8SW24,2W8246,8
2017-05-30 14:00:0027,349,21012010,7SW20,5SW8847,5
2017-05-30 13:00:0026,649,41012,7010,1SW20,0SW8446,9
2017-05-30 12:00:0025,651,71013,407,5SW15,3SW7625,5
2017-05-30 11:00:0023,856,91013,805,1S12,6W6353,8
2017-05-30 10:00:0021,563,11014,203,5SE8,8SE4772,1
2017-05-30 09:00:0020,268,51014,102,7NE10,5NW3090,8
2017-05-30 08:00:0015,988,11014,201,1NE5,1NW1510,1
2017-05-30 07:00:0014,393,41013,900,8S11,4S270
2017-05-30 06:00:0014,392,21013,400,7NW3,5NW00
2017-05-30 05:00:0014,890,41013,401,2NE4,1E00
2017-05-30 04:00:0015,388,91013,401,9N6,0N00
2017-05-30 03:00:0015,886,01013,202,7N7,8N00
2017-05-30 02:00:0016,781,71013,206,1NW14,6NW00
2017-05-30 01:00:0017,379,51013,509,7NW20,1NW-10
2017-05-30 00:00:0017,579,81013,508,0NW16,5NW00
2017-05-29 23:00:0018,178,71013,109,7NW20,9NW00
2017-05-29 22:00:0018,777,71012,5011,6NW25,5NW00
2017-05-29 21:00:0019,973,51011,8013,4NW27,4NW80,0
2017-05-29 20:00:0021,467,51011,5015,0NW32,2NW320,1
2017-05-29 19:00:0023,858,91011,3013,4NW34,2NW3660,8
2017-05-29 18:00:0025,951,41011,4014,1NW32,0W5292,2
2017-05-29 17:00:0025,950,21011,4013,4NW28,7NW5783,3
2017-05-29 16:00:0025,552,21011,7010,5NW23,9N4383,6
2017-05-29 15:00:0025,253,31012,1011,2W28,9NW3363,1
2017-05-29 14:00:0025,653,81012,6010,1W25,2NW5795,1
2017-05-29 13:00:0024,656,71012,908,8W19,8W4414,0
2017-05-29 12:00:0022,964,91013,008,1W21,4W3652,9
2017-05-29 11:00:0023,467,01013,108,2SW16,7SW3592,3
2017-05-29 10:00:0021,872,01013,205,3W17,8NW3551,7
2017-05-29 09:00:0019,585,51013,104,5NW11,6NW1250,3
2017-05-29 08:00:0018,492,31012,803,9W12,7NW470,0
2017-05-29 07:00:0017,995,41012,403,3W9,2W80
2017-05-29 06:00:0018,194,81012,30,23,8W10,1SW00
2017-05-29 05:00:0018,291,01012,403,4W8,6NW-10
2017-05-29 04:00:0018,091,01012,502,4W8,0NW00
2017-05-29 03:00:0017,891,91012,802,5W11,5NW-10
2017-05-29 02:00:0017,292,81013,202,4NW6,4NW00
2017-05-29 01:00:0017,789,61013,302,7W8,6W-10
2017-05-29 00:00:0018,487,91013,406,6W16,6SW-10